Wetterdaten: Donnerstag, 18.10.2018
Datum Zeit Temp. Aussen Temp. o. S. +5cm Feuchte Auss Luftdruck Regen Sonnenschein Regendauer Solar Windben Empfang
18.10.2018 00:00 13,8 C 12,8 C 12,8 C 91 % 1018,8 hPa 0,0 l/m 0 min 0 min 0 W/m 3,2 km/h (1 Bft) 97,87 %
18.10.2018 00:02 13,8 C 12,8 C 12,8 C 91 % 1018,8 hPa 0,0 l/m 0 min 0 min 0 W/m 0,0 km/h (0 Bft) 92,31 %
18.10.2018 00:04 13,8 C 12,8 C 12,8 C 91 % 1018,8 hPa 0,0 l/m 0 min 0 min 0 W/m 3,2 km/h (1 Bft) 97,87 %
18.10.2018 00:08 13,8 C 12,8 C 12,8 C 91 % 1018,8 hPa 0,0 l/m 0 min 0 min 0 W/m 6,4 km/h (2 Bft) 96,81 %
18.10.2018 00:10 13,7 C 12,8 C 12,8 C 91 % 1018,8 hPa 0,0 l/m 0 min 0 min 0 W/m 3,2 km/h (1 Bft) 97,83 %
18.10.2018 00:12 13,7 C 12,8 C 12,8 C 91 % 1018,8 hPa 0,0 l/m 0 min 0 min 0 W/m 3,2 km/h (1 Bft) 95,74 %
18.10.2018 00:14 13,7 C 12,2 C 12,8 C 91 % 1018,8 hPa 0,0 l/m 0 min 0 min 0 W/m 0,0 km/h (0 Bft) 97,87 %
18.10.2018 00:16 13,7 C 12,2 C 12,8 C 91 % 1018,9 hPa 0,0 l/m 0 min 0 min 0 W/m 0,0 km/h (0 Bft) 100,00 %
18.10.2018 00:18 13,7 C 12,2 C 12,8 C 92 % 1018,9 hPa 0,0 l/m 0 min 0 min 0 W/m 0,0 km/h (0 Bft) 97,87 %
18.10.2018 00:20 13,7 C 12,2 C 12,8 C 92 % 1018,8 hPa 0,0 l/m 0 min 0 min 0 W/m 0,0 km/h (0 Bft) 100,00 %
18.10.2018 00:22 13,6 C 12,2 C 12,8 C 92 % 1018,8 hPa 0,0 l/m 0 min 0 min 0 W/m 0,0 km/h (0 Bft) 93,48 %
18.10.2018 00:24 13,6 C 12,2 C 12,8 C 92 % 1018,8 hPa 0,0 l/m 0 min 0 min 0 W/m 0,0 km/h (0 Bft) 100,00 %
18.10.2018 00:26 13,6 C 12,2 C 12,8 C 91 % 1018,8 hPa 0,0 l/m 0 min 0 min 0 W/m 0,0 km/h (0 Bft) 100,00 %
18.10.2018 00:28 13,6 C 12,2 C 12,8 C 91 % 1018,8 hPa 0,0 l/m 0 min 0 min 0 W/m 0,0 km/h (0 Bft) 100,00 %
18.10.2018 00:30 13,6 C 12,2 C 12,8 C 92 % 1018,9 hPa 0,0 l/m 0 min 0 min 0 W/m 0,0 km/h (0 Bft) 97,87 %
18.10.2018 00:32 13,6 C 12,2 C 12,2 C 92 % 1018,9 hPa 0,0 l/m 0 min 0 min 0 W/m 9,7 km/h (2 Bft) 100,00 %
18.10.2018 00:34 13,6 C 12,2 C 12,2 C 92 % 1018,9 hPa 0,0 l/m 0 min 0 min 0 W/m 9,7 km/h (2 Bft) 100,00 %
18.10.2018 00:38 13,5 C 12,2 C 12,2 C 92 % 1018,9 hPa 0,0 l/m 0 min 0 min 0 W/m 3,2 km/h (1 Bft) 100,00 %
18.10.2018 00:40 13,5 C 12,2 C 12,2 C 92 % 1018,9 hPa 0,0 l/m 0 min 0 min 0 W/m 0,0 km/h (0 Bft) 100,00 %
18.10.2018 00:42 13,5 C 12,2 C 12,2 C 92 % 1018,9 hPa 0,0 l/m 0 min 0 min 0 W/m 3,2 km/h (1 Bft) 100,00 %
18.10.2018 00:44 13,4 C 12,2 C 12,2 C 92 % 1018,9 hPa 0,0 l/m 0 min 0 min 0 W/m 3,2 km/h (1 Bft) 100,00 %
18.10.2018 00:46 13,4 C 12,2 C 12,2 C 92 % 1018,9 hPa 0,0 l/m 0 min 0 min 0 W/m 0,0 km/h (0 Bft) 100,00 %
18.10.2018 00:48 13,4 C 12,2 C 12,2 C 92 % 1018,9 hPa 0,0 l/m 0 min 0 min 0 W/m 0,0 km/h (0 Bft) 100,00 %
18.10.2018 00:50 13,4 C 12,2 C 12,2 C 92 % 1018,9 hPa 0,0 l/m 0 min 0 min 0 W/m 0,0 km/h (0 Bft) 100,00 %
18.10.2018 00:52 13,4 C 12,2 C 12,2 C 92 % 1018,8 hPa 0,0 l/m 0 min 0 min 0 W/m 0,0 km/h (0 Bft) 100,00 %
18.10.2018 00:54 13,3 C 12,2 C 12,2 C 92 % 1018,9 hPa 0,0 l/m 0 min 0 min 0 W/m 0,0 km/h (0 Bft) 100,00 %
18.10.2018 00:56 13,3 C 12,2 C 12,2 C 92 % 1018,9 hPa 0,0 l/m 0 min 0 min 0 W/m 0,0 km/h (0 Bft) 100,00 %
18.10.2018 00:58 13,3 C 12,2 C 12,2 C 92 % 1018,9 hPa 0,0 l/m 0 min 0 min 0 W/m 3,2 km/h (1 Bft) 100,00 %
18.10.2018 01:00 13,3 C 12,2 C 12,2 C 92 % 1019,0 hPa 0,0 l/m 0 min 0 min 0 W/m 6,4 km/h (2 Bft) 100,00 %
18.10.2018 01:02 13,3 C 12,2 C 12,2 C 92 % 1019,0 hPa 0,0 l/m 0 min 0 min 0 W/m 3,2 km/h (1 Bft) 100,00 %
18.10.2018 01:04 13,2 C 12,2 C 12,2 C 92 % 1019,0 hPa 0,0 l/m 0 min 0 min 0 W/m 6,4 km/h (2 Bft) 97,87 %
18.10.2018 01:08 13,2 C 12,2 C 12,2 C 92 % 1019,1 hPa 0,0 l/m 0 min 0 min 0 W/m 6,4 km/h (2 Bft) 98,92 %
18.10.2018 01:10 13,2 C 12,2 C 12,2 C 92 % 1019,1 hPa 0,0 l/m 0 min 0 min 0 W/m 6,4 km/h (2 Bft) 100,00 %
18.10.2018 01:12 13,2 C 12,2 C 12,2 C 92 % 1019,0 hPa 0,0 l/m 0 min 0 min 0 W/m 6,4 km/h (2 Bft) 97,87 %
18.10.2018 01:14 13,2 C 12,2 C 12,2 C 92 % 1019,0 hPa 0,0 l/m 0 min 0 min 0 W/m 3,2 km/h (1 Bft) 97,87 %
18.10.2018 01:16 13,2 C 11,7 C 12,2 C 93 % 1019,1 hPa 0,0 l/m 0 min 0 min 0 W/m 0,0 km/h (0 Bft) 97,87 %
18.10.2018 01:18 13,1 C 11,7 C 12,2 C 93 % 1019,1 hPa 0,0 l/m 0 min 0 min 0 W/m 0,0 km/h (0 Bft) 97,87 %
18.10.2018 01:20 13,1 C 11,7 C 12,2 C 93 % 1019,1 hPa 0,0 l/m 0 min 0 min 0 W/m 6,4 km/h (2 Bft) 97,83 %
18.10.2018 01:22 13,1 C 11,7 C 12,2 C 93 % 1019,2 hPa 0,0 l/m 0 min 0 min 0 W/m 6,4 km/h (2 Bft) 97,87 %
18.10.2018 01:24 13,1 C 11,7 C 12,2 C 93 % 1019,1 hPa 0,0 l/m 0 min 0 min 0 W/m 0,0 km/h (0 Bft) 95,74 %
18.10.2018 01:26 13,1 C 11,7 C 12,2 C 93 % 1019,2 hPa 0,0 l/m 0 min 0 min 0 W/m 3,2 km/h (1 Bft) 95,74 %
18.10.2018 01:28 13,1 C 11,7 C 12,2 C 93 % 1019,0 hPa 0,0 l/m 0 min 0 min 0 W/m 6,4 km/h (2 Bft) 95,74 %
18.10.2018 01:30 13,1 C 11,7 C 12,2 C 93 % 1019,1 hPa 0,0 l/m 0 min 0 min 0 W/m 6,4 km/h (2 Bft) 97,83 %
18.10.2018 01:32 13,0 C 11,7 C 12,2 C 93 % 1019,1 hPa 0,0 l/m 0 min 0 min 0 W/m 3,2 km/h (1 Bft) 97,87 %
18.10.2018 01:34 13,0 C 11,7 C 12,2 C 93 % 1019,1 hPa 0,0 l/m 0 min 0 min 0 W/m 6,4 km/h (2 Bft) 97,87 %
18.10.2018 01:38 12,9 C 11,7 C 12,2 C 93 % 1019,1 hPa 0,0 l/m 0 min 0 min 0 W/m 9,7 km/h (2 Bft) 97,87 %
18.10.2018 01:40 13,0 C 11,7 C 12,2 C 93 % 1019,1 hPa 0,0 l/m 0 min 0 min 0 W/m 6,4 km/h (2 Bft) 97,87 %
18.10.2018 01:42 12,9 C 12,2 C 12,2 C 93 % 1019,1 hPa 0,0 l/m 0 min 0 min 0 W/m 9,7 km/h (2 Bft) 97,83 %
18.10.2018 01:44 12,9 C 11,7 C 12,2 C 93 % 1019,0 hPa 0,0 l/m 0 min 0 min 0 W/m 3,2 km/h (1 Bft) 97,87 %
18.10.2018 01:46 12,9 C 11,7 C 12,2 C 93 % 1019,0 hPa 0,0 l/m 0 min 0 min 0 W/m 6,4 km/h (2 Bft) 95,74 %
18.10.2018 01:48 12,9 C 11,7 C 12,2 C 94 % 1019,0 hPa 0,0 l/m 0 min 0 min 0 W/m 9,7 km/h (2 Bft) 97,87 %
18.10.2018 01:50 12,9 C 11,7 C 12,2 C 94 % 1019,0 hPa 0,0 l/m 0 min 0 min 0 W/m 0,0 km/h (0 Bft) 97,87 %
18.10.2018 01:52 12,9 C 11,7 C 12,2 C 94 % 1019,0 hPa 0,0 l/m 0 min 0 min 0 W/m 3,2 km/h (1 Bft) 97,87 %
18.10.2018 01:54 12,9 C 11,7 C 12,2 C 94 % 1019,0 hPa 0,0 l/m 0 min 0 min 0 W/m 3,2 km/h (1 Bft) 97,83 %
18.10.2018 01:56 12,8 C 11,7 C 12,2 C 94 % 1019,1 hPa 0,0 l/m 0 min 0 min 0 W/m 0,0 km/h (0 Bft) 97,87 %
18.10.2018 01:58 12,8 C 11,7 C 11,7 C 94 % 1019,1 hPa 0,0 l/m 0 min 0 min 0 W/m 3,2 km/h (1 Bft) 97,87 %
18.10.2018 02:00 12,8 C 11,7 C 12,2 C 94 % 1019,1 hPa 0,0 l/m 0 min 0 min 0 W/m 3,2 km/h (1 Bft) 95,74 %
18.10.2018 02:02 12,8 C 11,7 C 11,7 C 94 % 1019,0 hPa 0,0 l/m 0 min 0 min 0 W/m 3,2 km/h (1 Bft) 100,00 %
18.10.2018 02:04 12,8 C 11,7 C 11,7 C 94 % 1019,0 hPa 0,0 l/m 0 min 0 min 0 W/m 6,4 km/h (2 Bft) 100,00 %
18.10.2018 02:08 12,7 C 11,7 C 11,7 C 94 % 1019,0 hPa 0,0 l/m 0 min 0 min 0 W/m 3,2 km/h (1 Bft) 100,00 %
18.10.2018 02:10 12,7 C 11,7 C 11,7 C 94 % 1019,0 hPa 0,0 l/m 0 min 0 min 0 W/m 0,0 km/h (0 Bft) 100,00 %
18.10.2018 02:12 12,7 C 11,7 C 11,7 C 94 % 1019,0 hPa 0,0 l/m 0 min 0 min 0 W/m 0,0 km/h (0 Bft) 100,00 %
18.10.2018 02:14 12,7 C 11,7 C 11,7 C 94 % 1019,0 hPa 0,0 l/m 0 min 0 min 0 W/m 6,4 km/h (2 Bft) 100,00 %
18.10.2018 02:16 12,7 C 11,7 C 11,7 C 94 % 1019,0 hPa 0,0 l/m 0 min 0 min 0 W/m 0,0 km/h (0 Bft) 98,00 %
18.10.2018 02:18 12,7 C 11,7 C 11,7 C 94 % 1019,0 hPa 0,0 l/m 0 min 0 min 0 W/m 0,0 km/h (0 Bft) 100,00 %
18.10.2018 02:20 12,7 C 11,7 C 11,7 C 94 % 1018,9 hPa 0,0 l/m 0 min 0 min 0 W/m 6,4 km/h (2 Bft) 97,87 %
18.10.2018 02:22 12,6 C 11,7 C 11,7 C 94 % 1019,0 hPa 0,0 l/m 0 min 0 min 0 W/m 6,4 km/h (2 Bft) 97,87 %
18.10.2018 02:24 12,6 C 11,7 C 11,7 C 94 % 1019,0 hPa 0,0 l/m 0 min 0 min 0 W/m 0,0 km/h (0 Bft) 97,87 %
18.10.2018 02:26 12,6 C 11,7 C 11,7 C 94 % 1019,0 hPa 0,0 l/m 0 min 0 min 0 W/m 3,2 km/h (1 Bft) 95,74 %
18.10.2018 02:28 12,6 C 11,7 C 11,7 C 94 % 1019,1 hPa 0,0 l/m 0 min 0 min 0 W/m 3,2 km/h (1 Bft) 97,87 %
18.10.2018 02:30 12,6 C 11,7 C 11,7 C 94 % 1019,1 hPa 0,0 l/m 0 min 0 min 0 W/m 3,2 km/h (1 Bft) 97,83 %
18.10.2018 02:32 12,6 C 11,7 C 11,7 C 94 % 1019,2 hPa 0,0 l/m 0 min 0 min 0 W/m 6,4 km/h (2 Bft) 97,87 %
18.10.2018 02:34 12,6 C 11,7 C 11,7 C 94 % 1019,2 hPa 0,0 l/m 0 min 0 min 0 W/m 3,2 km/h (1 Bft) 97,87 %
18.10.2018 02:38 12,6 C 11,7 C 11,7 C 94 % 1019,1 hPa 0,0 l/m 0 min 0 min 0 W/m 3,2 km/h (1 Bft) 97,87 %
18.10.2018 02:40 12,5 C 11,7 C 11,7 C 94 % 1019,2 hPa 0,0 l/m 0 min 0 min 0 W/m 3,2 km/h (1 Bft) 95,74 %
18.10.2018 02:42 12,5 C 11,7 C 11,7 C 94 % 1019,2 hPa 0,0 l/m 0 min 0 min 0 W/m 6,4 km/h (2 Bft) 93,62 %
18.10.2018 02:44 12,5 C 11,7 C 11,7 C 94 % 1019,2 hPa 0,0 l/m 0 min 0 min 0 W/m 6,4 km/h (2 Bft) 97,83 %
18.10.2018 02:46 12,5 C 11,7 C 11,7 C 94 % 1019,2 hPa 0,0 l/m 0 min 0 min 0 W/m 0,0 km/h (0 Bft) 97,87 %
18.10.2018 02:48 12,5 C 11,7 C 11,7 C 94 % 1019,3 hPa 0,0 l/m 0 min 0 min 0 W/m 6,4 km/h (2 Bft) 97,87 %
18.10.2018 02:50 12,5 C 11,7 C 11,7 C 94 % 1019,3 hPa 0,0 l/m 0 min 0 min 0 W/m 6,4 km/h (2 Bft) 97,87 %
18.10.2018 02:52 12,5 C 11,7 C 11,7 C 94 % 1019,2 hPa 0,0 l/m 0 min 0 min 0 W/m 9,7 km/h (2 Bft) 97,87 %
18.10.2018 02:54 12,5 C 11,7 C 11,7 C 94 % 1019,2 hPa 0,0 l/m 0 min 0 min 0 W/m 6,4 km/h (2 Bft) 97,87 %
18.10.2018 02:56 12,5 C 11,7 C 11,7 C 94 % 1019,4 hPa 0,0 l/m 0 min 0 min 0 W/m 3,2 km/h (1 Bft) 95,65 %
18.10.2018 02:58 12,4 C 11,7 C 11,7 C 95 % 1019,3 hPa 0,0 l/m 0 min 0 min 0 W/m 6,4 km/h (2 Bft) 95,74 %
18.10.2018 03:00 12,4 C 11,7 C 11,7 C 95 % 1019,3 hPa 0,0 l/m 0 min 0 min 0 W/m 6,4 km/h (2 Bft) 93,62 %
18.10.2018 03:02 12,4 C 11,7 C 11,7 C 95 % 1019,4 hPa 0,0 l/m 0 min 0 min 0 W/m 6,4 km/h (2 Bft) 93,62 %
18.10.2018 03:04 12,4 C 11,7 C 11,7 C 95 % 1019,4 hPa 0,0 l/m 0 min 0 min 0 W/m 3,2 km/h (1 Bft) 95,74 %
18.10.2018 03:08 12,4 C 11,7 C 11,7 C 95 % 1019,4 hPa 0,0 l/m 0 min 0 min 0 W/m 3,2 km/h (1 Bft) 94,62 %
18.10.2018 03:10 12,4 C 11,7 C 11,7 C 95 % 1019,4 hPa 0,0 l/m 0 min 0 min 0 W/m 3,2 km/h (1 Bft) 97,87 %
18.10.2018 03:12 12,4 C 11,7 C 11,7 C 95 % 1019,4 hPa 0,0 l/m 0 min 0 min 0 W/m 3,2 km/h (1 Bft) 93,62 %
18.10.2018 03:14 12,4 C 11,7 C 11,7 C 95 % 1019,5 hPa 0,0 l/m 0 min 0 min 0 W/m 6,4 km/h (2 Bft) 97,87 %
18.10.2018 03:16 12,4 C 11,7 C 11,7 C 95 % 1019,4 hPa 0,0 l/m 0 min 0 min 0 W/m 6,4 km/h (2 Bft) 95,74 %
18.10.2018 03:18 12,4 C 11,7 C 11,7 C 95 % 1019,4 hPa 0,0 l/m 0 min 0 min 0 W/m 6,4 km/h (2 Bft) 97,83 %
18.10.2018 03:20 12,4 C 11,7 C 11,7 C 95 % 1019,4 hPa 0,0 l/m 0 min 0 min 0 W/m 6,4 km/h (2 Bft) 95,74 %
18.10.2018 03:22 12,4 C 11,7 C 11,7 C 95 % 1019,3 hPa 0,0 l/m 0 min 0 min 0 W/m 3,2 km/h (1 Bft) 97,87 %
18.10.2018 03:24 12,4 C 11,7 C 11,7 C 95 % 1019,3 hPa 0,0 l/m 0 min 0 min 0 W/m 3,2 km/h (1 Bft) 97,87 %
18.10.2018 03:26 12,4 C 11,7 C 11,7 C 95 % 1019,3 hPa 0,0 l/m 0 min 0 min 0 W/m 9,7 km/h (2 Bft) 97,87 %
18.10.2018 03:28 12,4 C 11,7 C 11,7 C 95 % 1019,3 hPa 0,0 l/m 0 min 0 min 0 W/m 6,4 km/h (2 Bft) 97,87 %
18.10.2018 03:30 12,4 C 11,7 C 11,7 C 95 % 1019,4 hPa 0,0 l/m 0 min 0 min 0 W/m 9,7 km/h (2 Bft) 97,87 %
18.10.2018 03:32 12,4 C 11,7 C 11,7 C 95 % 1019,3 hPa 0,0 l/m 0 min 0 min 0 W/m 3,2 km/h (1 Bft) 97,67 %
18.10.2018 03:34 12,4 C 11,7 C 11,7 C 95 % 1019,4 hPa 0,0 l/m 0 min 0 min 0 W/m 6,4 km/h (2 Bft) 97,87 %
18.10.2018 03:38 12,4 C 11,7 C 12,2 C 95 % 1019,4 hPa 0,0 l/m 0 min 0 min 0 W/m 12,9 km/h (3 Bft) 97,87 %
18.10.2018 03:40 12,5 C 11,7 C 12,2 C 95 % 1019,3 hPa 0,0 l/m 0 min 0 min 0 W/m 6,4 km/h (2 Bft) 95,65 %
18.10.2018 03:42 12,5 C 11,7 C 12,2 C 95 % 1019,3 hPa 0,0 l/m 0 min 0 min 0 W/m 9,7 km/h (2 Bft) 95,74 %
18.10.2018 03:44 12,5 C 12,2 C 12,2 C 95 % 1019,4 hPa 0,0 l/m 0 min 0 min 0 W/m 6,4 km/h (2 Bft) 97,87 %
18.10.2018 03:46 12,5 C 12,2 C 12,2 C 95 % 1019,4 hPa 0,0 l/m 0 min 0 min 0 W/m 3,2 km/h (1 Bft) 95,74 %
18.10.2018 03:48 12,5 C 12,2 C 12,2 C 95 % 1019,4 hPa 0,0 l/m 0 min 0 min 0 W/m 6,4 km/h (2 Bft) 97,87 %
18.10.2018 03:50 12,5 C 12,2 C 12,2 C 96 % 1019,4 hPa 0,0 l/m 0 min 0 min 0 W/m 6,4 km/h (2 Bft) 95,74 %
18.10.2018 03:52 12,6 C 12,2 C 12,2 C 96 % 1019,4 hPa 0,0 l/m 0 min 0 min 0 W/m 3,2 km/h (1 Bft) 95,65 %
18.10.2018 03:54 12,6 C 12,2 C 12,2 C 96 % 1019,4 hPa 0,0 l/m 0 min 0 min 0 W/m 3,2 km/h (1 Bft) 95,74 %
18.10.2018 03:56 12,6 C 12,2 C 12,2 C 96 % 1019,3 hPa 0,0 l/m 0 min 0 min 0 W/m 6,4 km/h (2 Bft) 93,62 %
18.10.2018 03:58 12,6 C 12,2 C 12,2 C 96 % 1019,4 hPa 0,0 l/m 0 min 0 min 0 W/m 3,2 km/h (1 Bft) 95,74 %
18.10.2018 04:00 12,6 C 12,2 C 12,2 C 96 % 1019,4 hPa 0,0 l/m 0 min 0 min 0 W/m 3,2 km/h (1 Bft) 95,74 %
18.10.2018 04:02 12,6 C 12,2 C 12,2 C 96 % 1019,4 hPa 0,0 l/m 0 min 0 min 0 W/m 3,2 km/h (1 Bft) 100,00 %
18.10.2018 04:04 12,6 C 12,2 C 12,2 C 96 % 1019,4 hPa 0,0 l/m 0 min 0 min 0 W/m 6,4 km/h (2 Bft) 95,65 %
18.10.2018 04:08 12,7 C 12,8 C 12,2 C 96 % 1019,3 hPa 0,0 l/m 0 min 0 min 0 W/m 6,4 km/h (2 Bft) 98,00 %
18.10.2018 04:10 12,7 C 12,8 C 12,8 C 96 % 1019,3 hPa 0,0 l/m 0 min 0 min 0 W/m 9,7 km/h (2 Bft) 97,87 %
18.10.2018 04:12 12,7 C 12,8 C 12,8 C 96 % 1019,3 hPa 0,0 l/m 0 min 0 min 0 W/m 3,2 km/h (1 Bft) 97,87 %
18.10.2018 04:14 12,8 C 12,8 C 12,8 C 96 % 1019,3 hPa 0,0 l/m 0 min 0 min 0 W/m 3,2 km/h (1 Bft) 93,62 %
18.10.2018 04:16 12,8 C 12,8 C 12,8 C 96 % 1019,3 hPa 0,0 l/m 0 min 0 min 0 W/m 0,0 km/h (0 Bft) 95,65 %
18.10.2018 04:18 12,8 C 12,8 C 12,8 C 96 % 1019,4 hPa 0,0 l/m 0 min 0 min 0 W/m 6,4 km/h (2 Bft) 97,87 %
18.10.2018 04:20 12,9 C 12,8 C 12,8 C 96 % 1019,5 hPa 0,0 l/m 0 min 0 min 0 W/m 9,7 km/h (2 Bft) 97,87 %
18.10.2018 04:22 12,9 C 12,8 C 12,8 C 96 % 1019,5 hPa 0,0 l/m 0 min 0 min 0 W/m 3,2 km/h (1 Bft) 97,87 %
18.10.2018 04:24 12,9 C 12,8 C 12,8 C 96 % 1019,5 hPa 0,0 l/m 0 min 0 min 0 W/m 0,0 km/h (0 Bft) 93,62 %
18.10.2018 04:26 12,9 C 12,8 C 12,8 C 96 % 1019,4 hPa 0,0 l/m 0 min 0 min 0 W/m 3,2 km/h (1 Bft) 97,83 %
18.10.2018 04:28 13,0 C 12,8 C 12,8 C 96 % 1019,5 hPa 0,0 l/m 0 min 0 min 0 W/m 6,4 km/h (2 Bft) 95,74 %
18.10.2018 04:30 13,0 C 12,8 C 12,8 C 96 % 1019,5 hPa 0,0 l/m 0 min 0 min 0 W/m 3,2 km/h (1 Bft) 97,87 %
18.10.2018 04:32 13,1 C 12,8 C 12,8 C 96 % 1019,5 hPa 0,0 l/m 0 min 0 min 0 W/m 6,4 km/h (2 Bft) 97,87 %
18.10.2018 04:34 13,1 C 12,8 C 12,8 C 96 % 1019,5 hPa 0,0 l/m 0 min 0 min 0 W/m 3,2 km/h (1 Bft) 97,87 %
18.10.2018 04:38 13,1 C 12,8 C 12,8 C 96 % 1019,4 hPa 0,0 l/m 0 min 0 min 0 W/m 3,2 km/h (1 Bft) 96,39 %
18.10.2018 04:40 13,1 C 12,8 C 12,8 C 96 % 1019,4 hPa 0,0 l/m 0 min 0 min 0 W/m 3,2 km/h (1 Bft) 97,87 %
18.10.2018 04:42 13,1 C 12,8 C 12,8 C 96 % 1019,5 hPa 0,0 l/m 0 min 0 min 0 W/m 6,4 km/h (2 Bft) 100,00 %
18.10.2018 04:44 13,2 C 12,8 C 12,8 C 96 % 1019,5 hPa 0,0 l/m 0 min 0 min 0 W/m 3,2 km/h (1 Bft) 100,00 %
18.10.2018 04:46 13,2 C 12,8 C 12,8 C 96 % 1019,5 hPa 0,0 l/m 0 min 0 min 0 W/m 3,2 km/h (1 Bft) 100,00 %
18.10.2018 04:48 13,2 C 12,8 C 12,8 C 96 % 1019,5 hPa 0,0 l/m 0 min 0 min 0 W/m 6,4 km/h (2 Bft) 100,00 %
18.10.2018 04:50 13,2 C 12,8 C 12,8 C 97 % 1019,5 hPa 0,0 l/m 0 min 0 min 0 W/m 6,4 km/h (2 Bft) 100,00 %
18.10.2018 04:52 13,2 C 12,8 C 12,8 C 97 % 1019,5 hPa 0,0 l/m 0 min 0 min 0 W/m 12,9 km/h (3 Bft) 100,00 %
18.10.2018 04:54 13,2 C 12,8 C 12,8 C 97 % 1019,4 hPa 0,0 l/m 0 min 0 min 0 W/m 6,4 km/h (2 Bft) 100,00 %
18.10.2018 04:56 13,2 C 12,8 C 12,8 C 97 % 1019,4 hPa 0,0 l/m 0 min 0 min 0 W/m 3,2 km/h (1 Bft) 100,00 %
18.10.2018 04:58 13,2 C 12,8 C 12,8 C 97 % 1019,4 hPa 0,0 l/m 0 min 0 min 0 W/m 6,4 km/h (2 Bft) 100,00 %
18.10.2018 05:00 13,2 C 12,8 C 12,8 C 97 % 1019,4 hPa 0,0 l/m 0 min 0 min 0 W/m 3,2 km/h (1 Bft) 100,00 %
18.10.2018 05:02 13,2 C 12,8 C 12,8 C 97 % 1019,5 hPa 0,0 l/m 0 min 0 min 0 W/m 3,2 km/h (1 Bft) 100,00 %
18.10.2018 05:04 13,3 C 12,8 C 12,8 C 97 % 1019,5 hPa 0,0 l/m 0 min 0 min 0 W/m 3,2 km/h (1 Bft) 100,00 %
18.10.2018 05:05 13,3 C 12,8 C 12,8 C 97 % 1019,4 hPa 0,0 l/m 0 min 0 min 0 W/m 12,9 km/h (3 Bft) 100,00 %
18.10.2018 05:12 13,3 C 12,8 C 12,8 C 97 % 1019,4 hPa 0,0 l/m 0 min 0 min 0 W/m 6,4 km/h (2 Bft) 96,00 %
18.10.2018 05:14 13,3 C 12,8 C 12,8 C 97 % 1019,5 hPa 0,0 l/m 0 min 0 min 0 W/m 6,4 km/h (2 Bft) 97,87 %
18.10.2018 05:16 13,3 C 12,8 C 12,8 C 96 % 1019,6 hPa 0,0 l/m 0 min 0 min 0 W/m 3,2 km/h (1 Bft) 97,83 %
18.10.2018 05:18 13,3 C 12,8 C 12,8 C 96 % 1019,6 hPa 0,0 l/m 0 min 0 min 0 W/m 3,2 km/h (1 Bft) 100,00 %
18.10.2018 05:20 13,3 C 12,8 C 12,8 C 96 % 1019,5 hPa 0,0 l/m 0 min 0 min 0 W/m 3,2 km/h (1 Bft) 96,00 %
18.10.2018 05:22 13,3 C 12,8 C 12,8 C 96 % 1019,4 hPa 0,0 l/m 0 min 0 min 0 W/m 0,0 km/h (0 Bft) 95,74 %
18.10.2018 05:24 13,3 C 12,8 C 12,8 C 96 % 1019,5 hPa 0,0 l/m 0 min 0 min 0 W/m 6,4 km/h (2 Bft) 97,83 %
18.10.2018 05:26 13,3 C 12,8 C 12,8 C 96 % 1019,5 hPa 0,0 l/m 0 min 0 min 0 W/m 3,2 km/h (1 Bft) 97,87 %
18.10.2018 05:28 13,3 C 12,8 C 12,8 C 96 % 1019,5 hPa 0,0 l/m 0 min 0 min 0 W/m 6,4 km/h (2 Bft) 97,87 %
18.10.2018 05:30 13,3 C 12,8 C 12,8 C 96 % 1019,6 hPa 0,0 l/m 0 min 0 min 0 W/m 3,2 km/h (1 Bft) 97,87 %
18.10.2018 05:32 13,3 C 12,8 C 12,8 C 96 % 1019,6 hPa 0,0 l/m 0 min 0 min 0 W/m 3,2 km/h (1 Bft) 97,14 %
18.10.2018 05:34 13,3 C 12,8 C 12,8 C 96 % 1019,6 hPa 0,0 l/m 0 min 0 min 0 W/m 9,7 km/h (2 Bft) 97,87 %
18.10.2018 05:38 13,3 C 13,3 C 12,8 C 96 % 1019,6 hPa 0,0 l/m 0 min 0 min 0 W/m 9,7 km/h (2 Bft) 97,85 %
18.10.2018 05:40 13,4 C 13,3 C 12,8 C 96 % 1019,6 hPa 0,0 l/m 0 min 0 min 0 W/m 0,0 km/h (0 Bft) 97,87 %
18.10.2018 05:42 13,4 C 13,3 C 12,8 C 96 % 1019,7 hPa 0,0 l/m 0 min 0 min 0 W/m 3,2 km/h (1 Bft) 97,87 %
18.10.2018 05:44 13,4 C 13,3 C 12,8 C 96 % 1019,7 hPa 0,0 l/m 0 min 0 min 0 W/m 12,9 km/h (3 Bft) 97,87 %
18.10.2018 05:46 13,4 C 13,3 C 12,8 C 96 % 1019,7 hPa 0,0 l/m 0 min 0 min 0 W/m 9,7 km/h (2 Bft) 97,92 %
18.10.2018 05:48 13,4 C 13,3 C 12,8 C 96 % 1019,7 hPa 0,0 l/m 0 min 0 min 0 W/m 6,4 km/h (2 Bft) 95,74 %
18.10.2018 05:50 13,4 C 13,3 C 12,8 C 96 % 1019,7 hPa 0,0 l/m 0 min 0 min 0 W/m 6,4 km/h (2 Bft) 98,28 %
18.10.2018 05:52 13,4 C 13,3 C 12,8 C 96 % 1019,7 hPa 0,0 l/m 0 min 0 min 0 W/m 3,2 km/h (1 Bft) 97,14 %
18.10.2018 05:54 13,5 C 13,3 C 12,8 C 96 % 1019,7 hPa 0,0 l/m 0 min 0 min 0 W/m 3,2 km/h (1 Bft) 95,74 %
18.10.2018 05:56 13,5 C 13,3 C 12,8 C 96 % 1019,7 hPa 0,0 l/m 0 min 0 min 0 W/m 0,0 km/h (0 Bft) 100,00 %
18.10.2018 05:58 13,5 C 13,3 C 12,8 C 96 % 1019,7 hPa 0,0 l/m 0 min 0 min 0 W/m 3,2 km/h (1 Bft) 100,00 %
18.10.2018 06:00 13,6 C 13,3 C 12,8 C 96 % 1019,8 hPa 0,0 l/m 0 min 0 min 0 W/m 6,4 km/h (2 Bft) 100,00 %
18.10.2018 06:02 13,6 C 13,3 C 12,8 C 96 % 1019,7 hPa 0,0 l/m 0 min 0 min 0 W/m 3,2 km/h (1 Bft) 97,83 %
18.10.2018 06:04 13,6 C 13,3 C 12,8 C 97 % 1019,7 hPa 0,0 l/m 0 min 0 min 0 W/m 6,4 km/h (2 Bft) 100,00 %
18.10.2018 06:08 13,6 C 13,3 C 12,8 C 97 % 1019,7 hPa 0,0 l/m 0 min 0 min 0 W/m 6,4 km/h (2 Bft) 98,94 %
18.10.2018 06:10 13,6 C 13,3 C 12,8 C 97 % 1019,8 hPa 0,0 l/m 0 min 0 min 0 W/m 3,2 km/h (1 Bft) 100,00 %
18.10.2018 06:12 13,6 C 13,3 C 12,8 C 97 % 1019,8 hPa 0,0 l/m 0 min 0 min 0 W/m 3,2 km/h (1 Bft) 95,74 %
18.10.2018 06:14 13,6 C 13,3 C 12,8 C 97 % 1019,7 hPa 0,0 l/m 0 min 0 min 0 W/m 9,7 km/h (2 Bft) 100,00 %
18.10.2018 06:16 13,6 C 13,3 C 12,8 C 96 % 1019,8 hPa 0,0 l/m 0 min 0 min 0 W/m 3,2 km/h (1 Bft) 100,00 %
18.10.2018 06:18 13,6 C 13,3 C 12,8 C 96 % 1019,8 hPa 0,0 l/m 0 min 0 min 0 W/m 3,2 km/h (1 Bft) 100,00 %
18.10.2018 06:20 13,6 C 13,3 C 12,8 C 96 % 1019,8 hPa 0,0 l/m 0 min 0 min 0 W/m 0,0 km/h (0 Bft) 100,00 %
18.10.2018 06:22 13,7 C 13,3 C 12,8 C 96 % 1019,9 hPa 0,0 l/m 0 min 0 min 0 W/m 6,4 km/h (2 Bft) 97,87 %
18.10.2018 06:24 13,7 C 13,3 C 12,8 C 96 % 1019,8 hPa 0,0 l/m 0 min 0 min 0 W/m 3,2 km/h (1 Bft) 100,00 %
18.10.2018 06:26 13,7 C 13,3 C 12,8 C 96 % 1019,9 hPa 0,0 l/m 0 min 0 min 0 W/m 6,4 km/h (2 Bft) 97,87 %
18.10.2018 06:28 13,7 C 13,3 C 12,8 C 96 % 1019,8 hPa 0,0 l/m 0 min 0 min 0 W/m 0,0 km/h (0 Bft) 100,00 %
18.10.2018 06:30 13,7 C 13,3 C 12,8 C 96 % 1019,9 hPa 0,0 l/m 0 min 0 min 0 W/m 3,2 km/h (1 Bft) 100,00 %
18.10.2018 06:32 13,7 C 13,3 C 12,8 C 96 % 1019,9 hPa 0,0 l/m 0 min 0 min 0 W/m 3,2 km/h (1 Bft) 100,00 %
18.10.2018 06:34 13,7 C 13,3 C 12,8 C 96 % 1019,9 hPa 0,0 l/m 0 min 0 min 0 W/m 3,2 km/h (1 Bft) 97,87 %
18.10.2018 06:38 13,7 C 13,3 C 12,8 C 96 % 1019,8 hPa 0,0 l/m 0 min 0 min 0 W/m 6,4 km/h (2 Bft) 96,81 %
18.10.2018 06:40 13,7 C 13,3 C 12,8 C 96 % 1019,9 hPa 0,0 l/m 0 min 0 min 0 W/m 9,7 km/h (2 Bft) 95,74 %
18.10.2018 06:42 13,7 C 13,3 C 12,8 C 96 % 1019,9 hPa 0,0 l/m 0 min 0 min 0 W/m 3,2 km/h (1 Bft) 95,74 %
18.10.2018 06:44 13,7 C 13,3 C 12,8 C 96 % 1019,9 hPa 0,0 l/m 0 min 0 min 0 W/m 3,2 km/h (1 Bft) 95,74 %
18.10.2018 06:46 13,7 C 13,3 C 12,8 C 96 % 1019,9 hPa 0,0 l/m 0 min 0 min 0 W/m 6,4 km/h (2 Bft) 95,74 %
18.10.2018 06:48 13,7 C 13,3 C 12,8 C 96 % 1019,9 hPa 0,0 l/m 0 min 0 min 0 W/m 6,4 km/h (2 Bft) 93,62 %
18.10.2018 06:50 13,7 C 13,3 C 12,8 C 96 % 1019,9 hPa 0,0 l/m 0 min 0 min 0 W/m 6,4 km/h (2 Bft) 95,65 %
18.10.2018 06:52 13,7 C 13,3 C 12,8 C 96 % 1020,0 hPa 0,0 l/m 0 min 0 min 0 W/m 9,7 km/h (2 Bft) 95,74 %
18.10.2018 06:54 13,7 C 13,3 C 12,8 C 96 % 1020,0 hPa 0,0 l/m 0 min 0 min 0 W/m 12,9 km/h (3 Bft) 95,74 %
18.10.2018 06:56 13,7 C 13,3 C 12,8 C 96 % 1020,0 hPa 0,0 l/m 0 min 0 min 0 W/m 6,4 km/h (2 Bft) 95,74 %
18.10.2018 06:58 13,7 C 13,3 C 12,8 C 96 % 1020,0 hPa 0,0 l/m 0 min 0 min 0 W/m 0,0 km/h (0 Bft) 95,74 %
18.10.2018 07:00 13,7 C 13,3 C 12,8 C 96 % 1020,0 hPa 0,0 l/m 0 min 0 min 0 W/m 6,4 km/h (2 Bft) 95,74 %
18.10.2018 07:02 13,7 C 13,3 C 12,8 C 96 % 1020,0 hPa 0,0 l/m 0 min 0 min 0 W/m 6,4 km/h (2 Bft) 95,74 %
18.10.2018 07:04 13,7 C 13,3 C 12,8 C 96 % 1020,0 hPa 0,0 l/m 0 min 0 min 0 W/m 3,2 km/h (1 Bft) 95,65 %
18.10.2018 07:08 13,7 C 13,3 C 12,8 C 96 % 1020,0 hPa 0,0 l/m 0 min 0 min 0 W/m 9,7 km/h (2 Bft) 94,74 %
18.10.2018 07:10 13,7 C 13,3 C 12,8 C 96 % 1020,0 hPa 0,0 l/m 0 min 0 min 0 W/m 9,7 km/h (2 Bft) 95,74 %
18.10.2018 07:12 13,7 C 13,3 C 12,8 C 96 % 1020,0 hPa 0,0 l/m 0 min 0 min 0 W/m 3,2 km/h (1 Bft) 93,48 %
18.10.2018 07:14 13,7 C 13,3 C 12,8 C 96 % 1020,0 hPa 0,0 l/m 0 min 0 min 0 W/m 3,2 km/h (1 Bft) 95,74 %
18.10.2018 07:16 13,7 C 13,3 C 12,8 C 96 % 1020,1 hPa 0,0 l/m 0 min 0 min 0 W/m 3,2 km/h (1 Bft) 95,83 %
18.10.2018 07:18 13,7 C 13,3 C 12,8 C 96 % 1020,1 hPa 0,0 l/m 0 min 0 min 0 W/m 9,7 km/h (2 Bft) 89,36 %
18.10.2018 07:20 13,7 C 13,3 C 12,8 C 96 % 1020,1 hPa 0,0 l/m 0 min 0 min 0 W/m 3,2 km/h (1 Bft) 95,74 %
18.10.2018 07:22 13,7 C 13,3 C 12,8 C 96 % 1020,1 hPa 0,0 l/m 0 min 0 min 0 W/m 3,2 km/h (1 Bft) 95,65 %
18.10.2018 07:24 13,7 C 13,3 C 12,8 C 96 % 1020,1 hPa 0,0 l/m 0 min 0 min 0 W/m 16,1 km/h (3 Bft) 93,62 %
18.10.2018 07:26 13,7 C 13,3 C 12,8 C 96 % 1020,1 hPa 0,0 l/m 0 min 0 min 0 W/m 9,7 km/h (2 Bft) 95,74 %
18.10.2018 07:28 13,7 C 13,3 C 12,8 C 96 % 1020,1 hPa 0,0 l/m 0 min 0 min 0 W/m 3,2 km/h (1 Bft) 97,87 %
18.10.2018 07:30 13,7 C 13,3 C 12,8 C 96 % 1020,1 hPa 0,0 l/m 0 min 0 min 0 W/m 12,9 km/h (3 Bft) 97,87 %
18.10.2018 07:32 13,7 C 13,3 C 12,8 C 96 % 1020,1 hPa 0,0 l/m 0 min 0 min 0 W/m 9,7 km/h (2 Bft) 97,87 %
18.10.2018 07:34 13,7 C 13,3 C 12,8 C 95 % 1020,2 hPa 0,0 l/m 0 min 0 min 0 W/m 9,7 km/h (2 Bft) 97,83 %
18.10.2018 07:38 13,7 C 13,3 C 12,8 C 95 % 1020,3 hPa 0,0 l/m 0 min 0 min 0 W/m 16,1 km/h (3 Bft) 98,94 %
18.10.2018 07:40 13,7 C 13,3 C 12,8 C 95 % 1020,3 hPa 0,0 l/m 0 min 0 min 0 W/m 9,7 km/h (2 Bft) 100,00 %
18.10.2018 07:42 13,7 C 13,3 C 12,8 C 95 % 1020,3 hPa 0,0 l/m 0 min 0 min 0 W/m 9,7 km/h (2 Bft) 100,00 %
18.10.2018 07:44 13,7 C 13,3 C 12,8 C 95 % 1020,3 hPa 0,0 l/m 0 min 0 min 0 W/m 6,4 km/h (2 Bft) 100,00 %
18.10.2018 07:46 13,7 C 13,3 C 12,8 C 95 % 1020,3 hPa 0,0 l/m 0 min 0 min 0 W/m 9,7 km/h (2 Bft) 100,00 %
18.10.2018 07:48 13,7 C 13,3 C 12,8 C 95 % 1020,3 hPa 0,0 l/m 0 min 0 min 0 W/m 9,7 km/h (2 Bft) 97,83 %
18.10.2018 07:50 13,7 C 13,3 C 12,8 C 95 % 1020,4 hPa 0,0 l/m 0 min 0 min 0 W/m 3,2 km/h (1 Bft) 97,87 %
18.10.2018 07:52 13,7 C 13,3 C 12,8 C 95 % 1020,4 hPa 0,0 l/m 0 min 0 min 0 W/m 6,4 km/h (2 Bft) 97,87 %
18.10.2018 07:54 13,7 C 13,3 C 12,8 C 95 % 1020,4 hPa 0,0 l/m 0 min 0 min 0 W/m 6,4 km/h (2 Bft) 97,87 %
18.10.2018 07:56 13,7 C 13,3 C 12,8 C 95 % 1020,4 hPa 0,0 l/m 0 min 0 min 0 W/m 6,4 km/h (2 Bft) 95,74 %
18.10.2018 07:58 13,7 C 13,3 C 12,8 C 95 % 1020,4 hPa 0,0 l/m 0 min 0 min 0 W/m 6,4 km/h (2 Bft) 95,65 %
18.10.2018 08:00 13,7 C 13,3 C 12,8 C 95 % 1020,4 hPa 0,0 l/m 0 min 0 min 0 W/m 12,9 km/h (3 Bft) 97,87 %
18.10.2018 08:02 13,7 C 13,3 C 12,8 C 95 % 1020,4 hPa 0,0 l/m 0 min 0 min 3 W/m 3,2 km/h (1 Bft) 97,87 %
18.10.2018 08:04 13,7 C 13,3 C 12,8 C 95 % 1020,4 hPa 0,0 l/m 0 min 0 min 5 W/m 6,4 km/h (2 Bft) 97,87 %
18.10.2018 08:08 13,7 C 13,3 C 12,8 C 95 % 1020,4 hPa 0,0 l/m 0 min 0 min 6 W/m 9,7 km/h (2 Bft) 97,78 %
18.10.2018 08:10 13,6 C 13,3 C 12,8 C 95 % 1020,4 hPa 0,0 l/m 0 min 0 min 7 W/m 9,7 km/h (2 Bft) 97,87 %
18.10.2018 08:12 13,6 C 13,3 C 12,8 C 95 % 1020,5 hPa 0,0 l/m 0 min 0 min 8 W/m 0,0 km/h (0 Bft) 95,74 %
18.10.2018 08:14 13,6 C 12,8 C 12,8 C 95 % 1020,5 hPa 0,0 l/m 0 min 0 min 9 W/m 3,2 km/h (1 Bft) 97,83 %
18.10.2018 08:16 13,6 C 12,8 C 12,8 C 94 % 1020,5 hPa 0,0 l/m 0 min 0 min 9 W/m 6,4 km/h (2 Bft) 95,45 %
18.10.2018 08:18 13,6 C 12,8 C 12,8 C 94 % 1020,5 hPa 0,0 l/m 0 min 0 min 11 W/m 6,4 km/h (2 Bft) 95,74 %
18.10.2018 08:20 13,6 C 12,8 C 12,8 C 94 % 1020,5 hPa 0,0 l/m 0 min 0 min 11 W/m 0,0 km/h (0 Bft) 98,28 %
18.10.2018 08:22 13,6 C 12,8 C 12,8 C 94 % 1020,5 hPa 0,0 l/m 0 min 0 min 12 W/m 0,0 km/h (0 Bft) 97,22 %
18.10.2018 08:24 13,6 C 12,8 C 12,8 C 94 % 1020,6 hPa 0,0 l/m 0 min 0 min 14 W/m 0,0 km/h (0 Bft) 97,83 %
18.10.2018 08:26 13,6 C 12,8 C 12,8 C 94 % 1020,5 hPa 0,0 l/m 0 min 0 min 15 W/m 9,7 km/h (2 Bft) 97,87 %
18.10.2018 08:28 13,6 C 12,8 C 12,8 C 94 % 1020,6 hPa 0,0 l/m 0 min 0 min 18 W/m 0,0 km/h (0 Bft) 97,87 %
18.10.2018 08:30 13,6 C 12,8 C 12,8 C 94 % 1020,6 hPa 0,0 l/m 0 min 0 min 19 W/m 0,0 km/h (0 Bft) 97,87 %
18.10.2018 08:32 13,5 C 12,8 C 12,8 C 94 % 1020,6 hPa 0,0 l/m 0 min 0 min 20 W/m 6,4 km/h (2 Bft) 97,92 %
18.10.2018 08:34 13,5 C 12,8 C 12,8 C 94 % 1020,6 hPa 0,0 l/m 0 min 0 min 18 W/m 3,2 km/h (1 Bft) 96,00 %
18.10.2018 08:38 13,5 C 13,3 C 12,8 C 94 % 1020,6 hPa 0,0 l/m 0 min 0 min 19 W/m 0,0 km/h (0 Bft) 100,00 %
18.10.2018 08:40 13,5 C 13,3 C 12,8 C 94 % 1020,8 hPa 0,0 l/m 0 min 0 min 19 W/m 0,0 km/h (0 Bft) 100,00 %
18.10.2018 08:42 13,5 C 13,3 C 12,8 C 94 % 1020,7 hPa 0,0 l/m 0 min 0 min 19 W/m 0,0 km/h (0 Bft) 100,00 %
18.10.2018 08:44 13,5 C 13,3 C 12,8 C 94 % 1020,7 hPa 0,0 l/m 0 min 0 min 18 W/m 3,2 km/h (1 Bft) 97,87 %
18.10.2018 08:46 13,5 C 13,3 C 12,8 C 94 % 1020,7 hPa 0,0 l/m 0 min 0 min 20 W/m 3,2 km/h (1 Bft) 97,83 %
18.10.2018 08:48 13,5 C 13,3 C 12,8 C 94 % 1020,7 hPa 0,0 l/m 0 min 0 min 20 W/m 3,2 km/h (1 Bft) 100,00 %
18.10.2018 08:50 13,5 C 13,3 C 12,8 C 94 % 1020,7 hPa 0,0 l/m 0 min 0 min 19 W/m 6,4 km/h (2 Bft) 100,00 %
18.10.2018 08:52 13,5 C 13,3 C 12,8 C 94 % 1020,8 hPa 0,0 l/m 0 min 0 min 22 W/m 9,7 km/h (2 Bft) 97,87 %
18.10.2018 08:54 13,5 C 13,3 C 12,8 C 94 % 1020,8 hPa 0,0 l/m 0 min 0 min 26 W/m 3,2 km/h (1 Bft) 100,00 %
18.10.2018 08:56 13,5 C 13,3 C 12,8 C 94 % 1020,8 hPa 0,0 l/m 0 min 0 min 25 W/m 3,2 km/h (1 Bft) 100,00 %
18.10.2018 08:58 13,5 C 13,3 C 12,8 C 93 % 1020,8 hPa 0,0 l/m 0 min 0 min 24 W/m 6,4 km/h (2 Bft) 100,00 %
18.10.2018 09:00 13,5 C 13,3 C 12,8 C 93 % 1020,8 hPa 0,0 l/m 0 min 0 min 20 W/m 3,2 km/h (1 Bft) 100,00 %
18.10.2018 09:02 13,5 C 13,3 C 12,8 C 94 % 1020,9 hPa 0,0 l/m 0 min 0 min 18 W/m 3,2 km/h (1 Bft) 97,87 %
18.10.2018 09:04 13,5 C 13,3 C 12,8 C 94 % 1020,9 hPa 0,0 l/m 0 min 0 min 19 W/m 3,2 km/h (1 Bft) 97,87 %
18.10.2018 09:08 13,5 C 13,3 C 12,8 C 93 % 1020,9 hPa 0,0 l/m 0 min 0 min 25 W/m 3,2 km/h (1 Bft) 100,00 %
18.10.2018 09:10 13,5 C 13,3 C 12,8 C 93 % 1020,9 hPa 0,0 l/m 0 min 0 min 28 W/m 0,0 km/h (0 Bft) 100,00 %
18.10.2018 09:12 13,5 C 13,3 C 12,8 C 93 % 1020,9 hPa 0,0 l/m 0 min 0 min 30 W/m 3,2 km/h (1 Bft) 97,87 %
18.10.2018 09:14 13,5 C 13,3 C 12,8 C 93 % 1020,9 hPa 0,0 l/m 0 min 0 min 33 W/m 0,0 km/h (0 Bft) 97,87 %
18.10.2018 09:16 13,6 C 13,3 C 12,8 C 93 % 1020,9 hPa 0,0 l/m 0 min 0 min 35 W/m 0,0 km/h (0 Bft) 100,00 %
18.10.2018 09:18 13,6 C 13,3 C 12,8 C 93 % 1021,0 hPa 0,0 l/m 0 min 0 min 37 W/m 3,2 km/h (1 Bft) 100,00 %
18.10.2018 09:20 13,6 C 13,3 C 12,8 C 93 % 1021,0 hPa 0,0 l/m 0 min 0 min 33 W/m 6,4 km/h (2 Bft) 100,00 %
18.10.2018 09:22 13,6 C 13,3 C 12,8 C 93 % 1021,1 hPa 0,0 l/m 0 min 0 min 31 W/m 9,7 km/h (2 Bft) 97,83 %
18.10.2018 09:24 13,6 C 13,3 C 12,8 C 93 % 1021,1 hPa 0,0 l/m 0 min 0 min 32 W/m 9,7 km/h (2 Bft) 97,87 %
18.10.2018 09:26 13,6 C 13,3 C 12,8 C 93 % 1021,0 hPa 0,0 l/m 0 min 0 min 33 W/m 9,7 km/h (2 Bft) 100,00 %
18.10.2018 09:28 13,6 C 13,3 C 12,8 C 93 % 1021,1 hPa 0,0 l/m 0 min 0 min 39 W/m 6,4 km/h (2 Bft) 100,00 %
18.10.2018 09:30 13,6 C 13,3 C 12,8 C 93 % 1021,1 hPa 0,0 l/m 0 min 0 min 45 W/m 6,4 km/h (2 Bft) 97,87 %
18.10.2018 09:32 13,6 C 13,3 C 12,8 C 93 % 1021,1 hPa 0,0 l/m 0 min 0 min 52 W/m 9,7 km/h (2 Bft) 100,00 %
18.10.2018 09:34 13,6 C 13,3 C 12,8 C 93 % 1021,1 hPa 0,0 l/m 0 min 0 min 57 W/m 9,7 km/h (2 Bft) 97,87 %
18.10.2018 09:38 13,6 C 13,3 C 12,8 C 93 % 1021,2 hPa 0,0 l/m 0 min 0 min 60 W/m 9,7 km/h (2 Bft) 96,39 %
18.10.2018 09:40 13,6 C 13,3 C 12,8 C 92 % 1021,2 hPa 0,0 l/m 0 min 0 min 61 W/m 19,3 km/h (3 Bft) 97,87 %
18.10.2018 09:42 13,6 C 13,3 C 12,8 C 92 % 1021,1 hPa 0,0 l/m 0 min 0 min 68 W/m 6,4 km/h (2 Bft) 97,87 %
18.10.2018 09:44 13,6 C 13,3 C 12,8 C 92 % 1021,1 hPa 0,0 l/m 0 min 0 min 71 W/m 6,4 km/h (2 Bft) 97,87 %
18.10.2018 09:46 13,6 C 13,3 C 12,8 C 92 % 1021,2 hPa 0,0 l/m 0 min 0 min 72 W/m 12,9 km/h (3 Bft) 97,87 %
18.10.2018 09:48 13,6 C 13,3 C 12,8 C 92 % 1021,2 hPa 0,0 l/m 0 min 0 min 76 W/m 9,7 km/h (2 Bft) 97,83 %
18.10.2018 09:50 13,6 C 13,3 C 12,8 C 92 % 1021,3 hPa 0,0 l/m 0 min 0 min 80 W/m 6,4 km/h (2 Bft) 98,31 %
18.10.2018 09:52 13,6 C 13,3 C 12,8 C 92 % 1021,3 hPa 0,0 l/m 0 min 0 min 73 W/m 9,7 km/h (2 Bft) 97,14 %
18.10.2018 09:54 13,6 C 13,3 C 12,8 C 92 % 1021,3 hPa 0,0 l/m 0 min 0 min 64 W/m 3,2 km/h (1 Bft) 95,74 %
18.10.2018 09:56 13,6 C 13,3 C 12,8 C 92 % 1021,4 hPa 0,0 l/m 0 min 0 min 67 W/m 9,7 km/h (2 Bft) 97,87 %
18.10.2018 09:58 13,7 C 13,3 C 12,8 C 92 % 1021,4 hPa 0,0 l/m 0 min 0 min 75 W/m 6,4 km/h (2 Bft) 97,87 %
18.10.2018 10:00 13,6 C 13,3 C 12,8 C 92 % 1021,4 hPa 0,0 l/m 0 min 0 min 72 W/m 6,4 km/h (2 Bft) 97,83 %
18.10.2018 10:02 13,6 C 13,3 C 12,8 C 92 % 1021,4 hPa 0,0 l/m 0 min 0 min 64 W/m 9,7 km/h (2 Bft) 97,87 %
18.10.2018 10:04 13,6 C 13,3 C 12,8 C 92 % 1021,4 hPa 0,0 l/m 0 min 0 min 64 W/m 6,4 km/h (2 Bft) 93,88 %
18.10.2018 10:08 13,7 C 13,3 C 12,8 C 92 % 1021,4 hPa 0,0 l/m 0 min 0 min 73 W/m 9,7 km/h (2 Bft) 97,92 %
18.10.2018 10:10 13,7 C 13,3 C 12,8 C 92 % 1021,4 hPa 0,0 l/m 0 min 0 min 84 W/m 12,9 km/h (3 Bft) 97,83 %
18.10.2018 10:12 13,7 C 13,3 C 12,8 C 92 % 1021,3 hPa 0,0 l/m 0 min 0 min 94 W/m 16,1 km/h (3 Bft) 95,74 %
18.10.2018 10:14 13,7 C 13,3 C 12,8 C 92 % 1021,4 hPa 0,0 l/m 0 min 0 min 97 W/m 16,1 km/h (3 Bft) 95,74 %
18.10.2018 10:16 13,7 C 13,3 C 12,8 C 92 % 1021,4 hPa 0,0 l/m 0 min 0 min 99 W/m 12,9 km/h (3 Bft) 95,74 %
18.10.2018 10:18 13,7 C 13,9 C 12,8 C 92 % 1021,5 hPa 0,0 l/m 0 min 0 min 103 W/m 9,7 km/h (2 Bft) 95,74 %
18.10.2018 10:20 13,7 C 13,9 C 12,8 C 92 % 1021,4 hPa 0,0 l/m 0 min 0 min 103 W/m 9,7 km/h (2 Bft) 95,74 %
18.10.2018 10:22 13,7 C 13,9 C 12,8 C 92 % 1021,5 hPa 0,0 l/m 0 min 0 min 99 W/m 12,9 km/h (3 Bft) 97,87 %
18.10.2018 10:24 13,7 C 13,9 C 12,8 C 92 % 1021,4 hPa 0,0 l/m 0 min 0 min 100 W/m 9,7 km/h (2 Bft) 95,74 %
18.10.2018 10:26 13,7 C 13,9 C 12,8 C 92 % 1021,4 hPa 0,0 l/m 0 min 0 min 105 W/m 12,9 km/h (3 Bft) 95,74 %
18.10.2018 10:28 13,7 C 13,9 C 12,8 C 92 % 1021,4 hPa 0,0 l/m 0 min 0 min 108 W/m 12,9 km/h (3 Bft) 97,87 %
18.10.2018 10:30 13,8 C 13,9 C 12,8 C 91 % 1021,5 hPa 0,0 l/m 0 min 0 min 101 W/m 6,4 km/h (2 Bft) 95,74 %
18.10.2018 10:32 13,8 C 13,9 C 12,8 C 91 % 1021,5 hPa 0,0 l/m 0 min 0 min 93 W/m 3,2 km/h (1 Bft) 93,48 %
18.10.2018 10:34 13,8 C 13,9 C 12,8 C 91 % 1021,5 hPa 0,0 l/m 0 min 0 min 91 W/m 12,9 km/h (3 Bft) 93,62 %
18.10.2018 10:38 13,8 C 13,9 C 12,8 C 91 % 1021,5 hPa 0,0 l/m 0 min 0 min 93 W/m 16,1 km/h (3 Bft) 94,68 %
18.10.2018 10:40 13,8 C 13,9 C 13,3 C 91 % 1021,5 hPa 0,0 l/m 0 min 0 min 97 W/m 6,4 km/h (2 Bft) 95,74 %
18.10.2018 10:42 13,8 C 13,9 C 13,3 C 91 % 1021,5 hPa 0,0 l/m 0 min 0 min 98 W/m 9,7 km/h (2 Bft) 93,62 %
18.10.2018 10:44 13,9 C 13,9 C 13,3 C 91 % 1021,5 hPa 0,0 l/m 0 min 0 min 101 W/m 22,5 km/h (4 Bft) 95,65 %
18.10.2018 10:46 13,9 C 13,9 C 13,3 C 91 % 1021,5 hPa 0,0 l/m 0 min 0 min 104 W/m 9,7 km/h (2 Bft) 95,74 %
18.10.2018 10:48 13,9 C 13,9 C 13,3 C 91 % 1021,5 hPa 0,0 l/m 0 min 0 min 106 W/m 16,1 km/h (3 Bft) 93,62 %
18.10.2018 10:50 13,9 C 13,9 C 13,3 C 91 % 1021,6 hPa 0,0 l/m 0 min 0 min 105 W/m 9,7 km/h (2 Bft) 93,75 %
18.10.2018 10:52 13,9 C 13,9 C 13,3 C 91 % 1021,6 hPa 0,0 l/m 0 min 0 min 108 W/m 9,7 km/h (2 Bft) 95,83 %
18.10.2018 10:54 13,9 C 13,9 C 13,3 C 91 % 1021,6 hPa 0,0 l/m 0 min 0 min 113 W/m 16,1 km/h (3 Bft) 95,65 %
18.10.2018 10:56 13,9 C 13,9 C 13,3 C 91 % 1021,6 hPa 0,0 l/m 0 min 0 min 118 W/m 12,9 km/h (3 Bft) 95,74 %
18.10.2018 10:58 14,0 C 14,4 C 13,3 C 91 % 1021,5 hPa 0,0 l/m 0 min 0 min 119 W/m 3,2 km/h (1 Bft) 95,74 %
18.10.2018 11:00 14,0 C 14,4 C 13,3 C 90 % 1021,5 hPa 0,0 l/m 0 min 0 min 124 W/m 0,0 km/h (0 Bft) 95,74 %
18.10.2018 11:02 14,0 C 14,4 C 13,3 C 90 % 1021,5 hPa 0,0 l/m 0 min 0 min 131 W/m 6,4 km/h (2 Bft) 95,74 %
18.10.2018 11:04 14,0 C 14,4 C 13,3 C 90 % 1021,5 hPa 0,0 l/m 0 min 0 min 138 W/m 9,7 km/h (2 Bft) 95,74 %
18.10.2018 11:08 14,1 C 14,4 C 13,3 C 90 % 1021,6 hPa 0,0 l/m 0 min 0 min 128 W/m 9,7 km/h (2 Bft) 95,70 %
18.10.2018 11:10 14,2 C 14,4 C 13,3 C 90 % 1021,5 hPa 0,0 l/m 0 min 0 min 121 W/m 6,4 km/h (2 Bft) 97,87 %
18.10.2018 11:12 14,2 C 14,4 C 13,3 C 90 % 1021,4 hPa 0,0 l/m 0 min 0 min 130 W/m 9,7 km/h (2 Bft) 93,62 %
18.10.2018 11:14 14,2 C 14,4 C 13,9 C 90 % 1021,5 hPa 0,0 l/m 0 min 0 min 142 W/m 9,7 km/h (2 Bft) 100,00 %
18.10.2018 11:16 14,2 C 15,0 C 13,9 C 90 % 1021,5 hPa 0,0 l/m 0 min 0 min 181 W/m 9,7 km/h (2 Bft) 97,87 %
18.10.2018 11:18 14,2 C 15,0 C 13,9 C 90 % 1021,5 hPa 0,0 l/m 2 min 0 min 210 W/m 12,9 km/h (3 Bft) 97,87 %
18.10.2018 11:20 14,2 C 15,6 C 13,9 C 90 % 1021,5 hPa 0,0 l/m 2 min 0 min 208 W/m 12,9 km/h (3 Bft) 100,00 %
18.10.2018 11:22 14,2 C 15,6 C 13,9 C 90 % 1021,5 hPa 0,0 l/m 0 min 0 min 199 W/m 3,2 km/h (1 Bft) 97,87 %
18.10.2018 11:24 14,3 C 15,6 C 13,9 C 90 % 1021,5 hPa 0,0 l/m 0 min 0 min 193 W/m 6,4 km/h (2 Bft) 97,87 %
18.10.2018 11:26 14,3 C 15,6 C 13,9 C 89 % 1021,4 hPa 0,0 l/m 0 min 0 min 182 W/m 16,1 km/h (3 Bft) 100,00 %
18.10.2018 11:28 14,4 C 15,6 C 13,9 C 89 % 1021,5 hPa 0,0 l/m 0 min 0 min 189 W/m 12,9 km/h (3 Bft) 100,00 %
18.10.2018 11:30 14,4 C 15,6 C 13,9 C 89 % 1021,6 hPa 0,0 l/m 0 min 0 min 189 W/m 6,4 km/h (2 Bft) 97,87 %
18.10.2018 11:32 14,5 C 15,6 C 13,9 C 89 % 1021,5 hPa 0,0 l/m 0 min 0 min 160 W/m 9,7 km/h (2 Bft) 97,87 %
18.10.2018 11:34 14,6 C 15,6 C 13,9 C 89 % 1021,5 hPa 0,0 l/m 0 min 0 min 148 W/m 16,1 km/h (3 Bft) 100,00 %
18.10.2018 11:38 14,7 C 15,6 C 13,9 C 88 % 1021,5 hPa 0,0 l/m 0 min 0 min 165 W/m 16,1 km/h (3 Bft) 100,00 %
18.10.2018 11:40 14,7 C 15,6 C 13,9 C 88 % 1021,5 hPa 0,0 l/m 0 min 0 min 156 W/m 16,1 km/h (3 Bft) 100,00 %
18.10.2018 11:42 14,7 C 16,7 C 13,9 C 88 % 1021,5 hPa 0,0 l/m 0 min 0 min 176 W/m 22,5 km/h (4 Bft) 100,00 %
18.10.2018 11:44 14,8 C 17,2 C 13,9 C 88 % 1021,5 hPa 0,0 l/m 0 min 0 min 155 W/m 6,4 km/h (2 Bft) 100,00 %
18.10.2018 11:46 14,8 C 16,7 C 13,9 C 88 % 1021,6 hPa 0,0 l/m 0 min 0 min 123 W/m 6,4 km/h (2 Bft) 100,00 %
18.10.2018 11:48 14,9 C 17,8 C 13,9 C 87 % 1021,6 hPa 0,0 l/m 0 min 0 min 192 W/m 9,7 km/h (2 Bft) 100,00 %
18.10.2018 11:50 14,9 C 18,9 C 13,9 C 87 % 1021,6 hPa 0,0 l/m 0 min 0 min 138 W/m 9,7 km/h (2 Bft) 100,00 %
18.10.2018 11:52 15,0 C 20,0 C 13,9 C 87 % 1021,5 hPa 0,0 l/m 0 min 0 min 153 W/m 12,9 km/h (3 Bft) 97,83 %
18.10.2018 11:54 15,1 C 21,1 C 14,4 C 87 % 1021,5 hPa 0,0 l/m 2 min 0 min 255 W/m 12,9 km/h (3 Bft) 100,00 %
18.10.2018 11:56 15,2 C 22,2 C 14,4 C 87 % 1021,6 hPa 0,0 l/m 0 min 0 min 195 W/m 6,4 km/h (2 Bft) 100,00 %
18.10.2018 11:58 15,3 C 23,9 C 14,4 C 87 % 1021,6 hPa 0,0 l/m 0 min 0 min 186 W/m 6,4 km/h (2 Bft) 97,87 %
18.10.2018 12:00 15,4 C 23,9 C 14,4 C 87 % 1021,7 hPa 0,0 l/m 0 min 0 min 153 W/m 9,7 km/h (2 Bft) 100,00 %
18.10.2018 12:02 15,6 C 23,9 C 15,0 C 87 % 1021,6 hPa 0,0 l/m 2 min 0 min 244 W/m 9,7 km/h (2 Bft) 100,00 %
18.10.2018 12:04 15,7 C 21,7 C 15,0 C 86 % 1021,6 hPa 0,0 l/m 2 min 0 min 226 W/m 22,5 km/h (4 Bft) 100,00 %
18.10.2018 12:08 15,9 C 22,2 C 15,0 C 84 % 1021,6 hPa 0,0 l/m 0 min 0 min 194 W/m 16,1 km/h (3 Bft) 98,94 %
18.10.2018 12:10 16,1 C 21,7 C 15,0 C 84 % 1021,5 hPa 0,0 l/m 0 min 0 min 155 W/m 16,1 km/h (3 Bft) 100,00 %
18.10.2018 12:12 16,2 C 22,2 C 15,0 C 83 % 1021,6 hPa 0,0 l/m 0 min 0 min 180 W/m 12,9 km/h (3 Bft) 100,00 %
18.10.2018 12:14 16,3 C 21,7 C 15,0 C 83 % 1021,6 hPa 0,0 l/m 0 min 0 min 176 W/m 9,7 km/h (2 Bft) 100,00 %
18.10.2018 12:16 16,4 C 22,8 C 15,0 C 82 % 1021,6 hPa 0,0 l/m 0 min 0 min 196 W/m 12,9 km/h (3 Bft) 100,00 %
18.10.2018 12:18 16,6 C 23,3 C 15,0 C 81 % 1021,6 hPa 0,0 l/m 0 min 0 min 176 W/m 9,7 km/h (2 Bft) 100,00 %
18.10.2018 12:20 16,7 C 24,4 C 15,6 C 81 % 1021,6 hPa 0,0 l/m 0 min 0 min 199 W/m 9,7 km/h (2 Bft) 100,00 %
18.10.2018 12:22 16,8 C 25,0 C 15,6 C 81 % 1021,7 hPa 0,0 l/m 2 min 0 min 257 W/m 6,4 km/h (2 Bft) 100,00 %
18.10.2018 12:24 16,9 C 24,4 C 15,6 C 80 % 1021,6 hPa 0,0 l/m 2 min 0 min 253 W/m 16,1 km/h (3 Bft) 100,00 %
18.10.2018 12:26 17,1 C 23,9 C 16,1 C 80 % 1021,6 hPa 0,0 l/m 0 min 0 min 194 W/m 16,1 km/h (3 Bft) 100,00 %
18.10.2018 12:28 17,2 C 22,2 C 15,6 C 80 % 1021,7 hPa 0,0 l/m 0 min 0 min 161 W/m 12,9 km/h (3 Bft) 100,00 %
18.10.2018 12:30 17,3 C 21,7 C 15,6 C 79 % 1021,7 hPa 0,0 l/m 0 min 0 min 182 W/m 12,9 km/h (3 Bft) 97,87 %
18.10.2018 12:32 17,3 C 20,6 C 15,6 C 78 % 1021,8 hPa 0,0 l/m 0 min 0 min 218 W/m 9,7 km/h (2 Bft) 100,00 %
18.10.2018 12:34 17,4 C 20,0 C 15,6 C 78 % 1021,7 hPa 0,0 l/m 0 min 0 min 230 W/m 12,9 km/h (3 Bft) 100,00 %
18.10.2018 12:38 17,6 C 18,9 C 16,1 C 77 % 1021,7 hPa 0,0 l/m 0 min 0 min 236 W/m 12,9 km/h (3 Bft) 99,05 %
18.10.2018 12:40 17,7 C 19,4 C 16,1 C 77 % 1021,7 hPa 0,0 l/m 2 min 0 min 295 W/m 19,3 km/h (3 Bft) 100,00 %
18.10.2018 12:42 17,7 C 18,3 C 15,6 C 77 % 1021,7 hPa 0,0 l/m 2 min 0 min 244 W/m 22,5 km/h (4 Bft) 100,00 %
18.10.2018 12:44 17,7 C 18,3 C 15,6 C 76 % 1021,7 hPa 0,0 l/m 2 min 0 min 257 W/m 29,0 km/h (5 Bft) 100,00 %
18.10.2018 12:46 17,7 C 17,8 C 15,6 C 76 % 1021,6 hPa 0,0 l/m 0 min 0 min 212 W/m 12,9 km/h (3 Bft) 94,44 %
18.10.2018 12:48 17,7 C 17,8 C 15,6 C 76 % 1021,6 hPa 0,0 l/m 0 min 0 min 192 W/m 16,1 km/h (3 Bft) 100,00 %
18.10.2018 12:50 17,6 C 17,2 C 15,6 C 76 % 1021,7 hPa 0,0 l/m 0 min 0 min 188 W/m 12,9 km/h (3 Bft) 100,00 %
18.10.2018 12:52 17,6 C 17,2 C 15,0 C 76 % 1021,6 hPa 0,0 l/m 0 min 0 min 188 W/m 9,7 km/h (2 Bft) 100,00 %
18.10.2018 12:54 17,5 C 17,2 C 15,0 C 76 % 1021,6 hPa 0,0 l/m 0 min 0 min 215 W/m 16,1 km/h (3 Bft) 100,00 %
18.10.2018 12:56 17,5 C 17,8 C 15,6 C 76 % 1021,6 hPa 0,0 l/m 2 min 0 min 318 W/m 12,9 km/h (3 Bft) 95,74 %
18.10.2018 12:58 17,5 C 17,8 C 15,6 C 77 % 1021,6 hPa 0,0 l/m 2 min 0 min 391 W/m 9,7 km/h (2 Bft) 95,74 %
18.10.2018 13:00 17,4 C 17,2 C 15,6 C 77 % 1021,6 hPa 0,0 l/m 2 min 0 min 283 W/m 16,1 km/h (3 Bft) 95,74 %
18.10.2018 13:02 17,4 C 17,2 C 15,6 C 76 % 1021,6 hPa 0,0 l/m 0 min 0 min 180 W/m 9,7 km/h (2 Bft) 95,74 %
18.10.2018 13:04 17,4 C 17,2 C 15,6 C 76 % 1021,6 hPa 0,0 l/m 2 min 0 min 366 W/m 12,9 km/h (3 Bft) 95,74 %
18.10.2018 13:08 17,3 C 17,2 C 15,6 C 76 % 1021,6 hPa 0,0 l/m 0 min 0 min 209 W/m 16,1 km/h (3 Bft) 95,96 %
18.10.2018 13:10 17,3 C 17,2 C 15,6 C 76 % 1021,6 hPa 0,0 l/m 2 min 0 min 397 W/m 16,1 km/h (3 Bft) 93,62 %
18.10.2018 13:12 17,3 C 17,2 C 15,6 C 76 % 1021,6 hPa 0,0 l/m 2 min 0 min 447 W/m 19,3 km/h (3 Bft) 95,74 %
18.10.2018 13:14 17,3 C 17,8 C 15,6 C 76 % 1021,6 hPa 0,0 l/m 2 min 0 min 441 W/m 12,9 km/h (3 Bft) 95,74 %
18.10.2018 13:16 17,3 C 17,8 C 16,1 C 76 % 1021,6 hPa 0,0 l/m 2 min 0 min 456 W/m 16,1 km/h (3 Bft) 93,62 %
18.10.2018 13:18 17,3 C 17,8 C 16,1 C 76 % 1021,6 hPa 0,0 l/m 2 min 0 min 483 W/m 22,5 km/h (4 Bft) 93,48 %
18.10.2018 13:20 17,4 C 17,8 C 16,1 C 76 % 1021,6 hPa 0,0 l/m 2 min 0 min 556 W/m 16,1 km/h (3 Bft) 93,22 %
18.10.2018 13:22 17,4 C 17,8 C 16,1 C 76 % 1021,5 hPa 0,0 l/m 2 min 0 min 322 W/m 16,1 km/h (3 Bft) 94,29 %
18.10.2018 13:24 17,4 C 17,8 C 16,1 C 76 % 1021,6 hPa 0,0 l/m 2 min 0 min 249 W/m 16,1 km/h (3 Bft) 93,62 %
18.10.2018 13:26 17,4 C 17,8 C 16,1 C 76 % 1021,6 hPa 0,0 l/m 0 min 0 min 182 W/m 6,4 km/h (2 Bft) 93,62 %
18.10.2018 13:28 17,4 C 17,8 C 15,6 C 76 % 1021,6 hPa 0,0 l/m 0 min 0 min 207 W/m 12,9 km/h (3 Bft) 91,49 %
18.10.2018 13:30 17,4 C 17,8 C 16,1 C 75 % 1021,6 hPa 0,0 l/m 2 min 0 min 286 W/m 12,9 km/h (3 Bft) 93,62 %
18.10.2018 13:32 17,4 C 17,8 C 16,1 C 75 % 1021,6 hPa 0,0 l/m 2 min 0 min 306 W/m 16,1 km/h (3 Bft) 91,30 %
18.10.2018 13:34 17,4 C 17,8 C 16,1 C 75 % 1021,6 hPa 0,0 l/m 2 min 0 min 242 W/m 16,1 km/h (3 Bft) 93,62 %
18.10.2018 13:38 17,5 C 17,8 C 16,1 C 75 % 1021,5 hPa 0,0 l/m 0 min 0 min 193 W/m 12,9 km/h (3 Bft) 92,55 %
18.10.2018 13:40 17,5 C 17,8 C 16,1 C 75 % 1021,6 hPa 0,0 l/m 0 min 0 min 197 W/m 9,7 km/h (2 Bft) 93,62 %
18.10.2018 13:42 17,5 C 17,2 C 16,1 C 76 % 1021,6 hPa 0,0 l/m 0 min 0 min 136 W/m 19,3 km/h (3 Bft) 93,62 %
18.10.2018 13:44 17,5 C 17,2 C 15,6 C 75 % 1021,5 hPa 0,0 l/m 0 min 0 min 128 W/m 12,9 km/h (3 Bft) 93,48 %
18.10.2018 13:46 17,5 C 16,7 C 15,6 C 75 % 1021,4 hPa 0,0 l/m 0 min 0 min 122 W/m 19,3 km/h (3 Bft) 90,70 %
18.10.2018 13:48 17,4 C 16,7 C 15,6 C 75 % 1021,5 hPa 0,0 l/m 0 min 0 min 120 W/m 16,1 km/h (3 Bft) 93,62 %
18.10.2018 13:50 17,4 C 16,7 C 15,6 C 75 % 1021,5 hPa 0,0 l/m 0 min 0 min 150 W/m 12,9 km/h (3 Bft) 98,28 %
18.10.2018 13:52 17,3 C 16,7 C 15,6 C 75 % 1021,5 hPa 0,0 l/m 2 min 0 min 238 W/m 16,1 km/h (3 Bft) 97,14 %
18.10.2018 13:54 17,3 C 17,2 C 15,6 C 75 % 1021,5 hPa 0,0 l/m 2 min 0 min 267 W/m 12,9 km/h (3 Bft) 97,87 %
18.10.2018 13:56 17,3 C 17,2 C 15,6 C 75 % 1021,5 hPa 0,0 l/m 2 min 0 min 427 W/m 6,4 km/h (2 Bft) 97,87 %
18.10.2018 13:58 17,3 C 17,8 C 15,6 C 76 % 1021,5 hPa 0,0 l/m 2 min 0 min 370 W/m 12,9 km/h (3 Bft) 95,74 %
18.10.2018 14:00 17,3 C 17,8 C 16,1 C 75 % 1021,5 hPa 0,0 l/m 0 min 0 min 178 W/m 16,1 km/h (3 Bft) 97,87 %
18.10.2018 14:02 17,3 C 17,8 C 16,1 C 76 % 1021,5 hPa 0,0 l/m 2 min 0 min 452 W/m 12,9 km/h (3 Bft) 96,15 %
18.10.2018 14:04 17,3 C 18,3 C 16,1 C 76 % 1021,4 hPa 0,0 l/m 2 min 0 min 418 W/m 12,9 km/h (3 Bft) 97,83 %
18.10.2018 14:08 17,3 C 18,3 C 16,1 C 75 % 1021,4 hPa 0,0 l/m 4 min 0 min 445 W/m 16,1 km/h (3 Bft) 96,84 %
18.10.2018 14:10 17,4 C 18,3 C 16,1 C 75 % 1021,4 hPa 0,0 l/m 2 min 0 min 355 W/m 16,1 km/h (3 Bft) 97,87 %
18.10.2018 14:12 17,4 C 17,8 C 16,1 C 75 % 1021,4 hPa 0,0 l/m 0 min 0 min 230 W/m 16,1 km/h (3 Bft) 97,87 %
18.10.2018 14:14 17,4 C 17,8 C 16,1 C 75 % 1021,3 hPa 0,0 l/m 2 min 0 min 251 W/m 9,7 km/h (2 Bft) 100,00 %
18.10.2018 14:16 17,4 C 17,8 C 16,1 C 74 % 1021,3 hPa 0,0 l/m 2 min 0 min 232 W/m 22,5 km/h (4 Bft) 100,00 %
18.10.2018 14:18 17,4 C 17,8 C 16,1 C 74 % 1021,3 hPa 0,0 l/m 2 min 0 min 233 W/m 9,7 km/h (2 Bft) 97,87 %
18.10.2018 14:20 17,4 C 17,8 C 16,1 C 74 % 1021,3 hPa 0,0 l/m 2 min 0 min 255 W/m 9,7 km/h (2 Bft) 100,00 %
18.10.2018 14:22 17,5 C 18,3 C 16,1 C 75 % 1021,3 hPa 0,0 l/m 2 min 0 min 283 W/m 6,4 km/h (2 Bft) 100,00 %
18.10.2018 14:24 17,6 C 18,3 C 16,1 C 75 % 1021,3 hPa 0,0 l/m 2 min 0 min 238 W/m 9,7 km/h (2 Bft) 100,00 %
18.10.2018 14:26 17,6 C 18,3 C 16,1 C 75 % 1021,3 hPa 0,0 l/m 0 min 0 min 183 W/m 12,9 km/h (3 Bft) 97,83 %
18.10.2018 14:28 17,6 C 18,3 C 16,1 C 75 % 1021,3 hPa 0,0 l/m 0 min 0 min 128 W/m 9,7 km/h (2 Bft) 100,00 %
18.10.2018 14:30 17,6 C 17,8 C 16,1 C 75 % 1021,3 hPa 0,0 l/m 0 min 0 min 104 W/m 9,7 km/h (2 Bft) 97,87 %
18.10.2018 14:32 17,6 C 17,2 C 16,1 C 75 % 1021,3 hPa 0,0 l/m 0 min 0 min 104 W/m 19,3 km/h (3 Bft) 100,00 %
18.10.2018 14:34 17,6 C 17,2 C 16,1 C 75 % 1021,3 hPa 0,0 l/m 0 min 0 min 116 W/m 16,1 km/h (3 Bft) 100,00 %
18.10.2018 14:38 17,6 C 17,2 C 16,1 C 75 % 1021,4 hPa 0,0 l/m 0 min 0 min 128 W/m 16,1 km/h (3 Bft) 100,00 %
18.10.2018 14:40 17,6 C 17,2 C 16,1 C 75 % 1021,4 hPa 0,0 l/m 0 min 0 min 130 W/m 22,5 km/h (4 Bft) 100,00 %
18.10.2018 14:42 17,6 C 17,2 C 16,1 C 75 % 1021,4 hPa 0,0 l/m 0 min 0 min 131 W/m 9,7 km/h (2 Bft) 97,87 %
18.10.2018 14:44 17,6 C 17,2 C 16,1 C 76 % 1021,4 hPa 0,0 l/m 0 min 0 min 144 W/m 16,1 km/h (3 Bft) 100,00 %
18.10.2018 14:46 17,6 C 16,7 C 15,6 C 76 % 1021,4 hPa 0,0 l/m 0 min 0 min 171 W/m 22,5 km/h (4 Bft) 100,00 %
18.10.2018 14:48 17,6 C 16,7 C 16,1 C 77 % 1021,4 hPa 0,0 l/m 0 min 0 min 200 W/m 12,9 km/h (3 Bft) 100,00 %
18.10.2018 14:50 17,6 C 17,2 C 16,1 C 77 % 1021,4 hPa 0,0 l/m 2 min 0 min 227 W/m 12,9 km/h (3 Bft) 100,00 %
18.10.2018 14:52 17,5 C 17,2 C 16,1 C 77 % 1021,5 hPa 0,0 l/m 2 min 0 min 280 W/m 22,5 km/h (4 Bft) 93,62 %
18.10.2018 14:54 17,5 C 17,2 C 16,1 C 77 % 1021,4 hPa 0,0 l/m 2 min 0 min 407 W/m 19,3 km/h (3 Bft) 95,74 %
18.10.2018 14:56 17,5 C 17,8 C 16,1 C 78 % 1021,4 hPa 0,0 l/m 2 min 0 min 363 W/m 9,7 km/h (2 Bft) 100,00 %
18.10.2018 14:58 17,5 C 17,2 C 16,1 C 78 % 1021,5 hPa 0,0 l/m 2 min 0 min 215 W/m 16,1 km/h (3 Bft) 97,87 %
18.10.2018 15:00 17,5 C 17,2 C 16,1 C 78 % 1021,5 hPa 0,0 l/m 0 min 0 min 193 W/m 16,1 km/h (3 Bft) 100,00 %
18.10.2018 15:02 17,5 C 17,2 C 16,1 C 77 % 1021,5 hPa 0,0 l/m 0 min 0 min 185 W/m 16,1 km/h (3 Bft) 95,74 %
18.10.2018 15:04 17,5 C 17,2 C 16,1 C 77 % 1021,5 hPa 0,0 l/m 0 min 0 min 159 W/m 9,7 km/h (2 Bft) 100,00 %
18.10.2018 15:08 17,4 C 16,7 C 15,6 C 78 % 1021,5 hPa 0,0 l/m 0 min 0 min 149 W/m 12,9 km/h (3 Bft) 100,00 %
18.10.2018 15:10 17,4 C 16,7 C 15,6 C 78 % 1021,5 hPa 0,0 l/m 0 min 0 min 145 W/m 16,1 km/h (3 Bft) 100,00 %
18.10.2018 15:12 17,4 C 16,7 C 15,6 C 78 % 1021,5 hPa 0,0 l/m 0 min 0 min 133 W/m 12,9 km/h (3 Bft) 97,83 %
18.10.2018 15:14 17,4 C 16,7 C 15,6 C 78 % 1021,6 hPa 0,0 l/m 0 min 0 min 128 W/m 19,3 km/h (3 Bft) 100,00 %
18.10.2018 15:16 17,4 C 16,7 C 15,6 C 78 % 1021,6 hPa 0,0 l/m 0 min 0 min 143 W/m 12,9 km/h (3 Bft) 100,00 %
18.10.2018 15:18 17,4 C 16,7 C 15,6 C 78 % 1021,6 hPa 0,0 l/m 0 min 0 min 169 W/m 9,7 km/h (2 Bft) 95,74 %
18.10.2018 15:20 17,3 C 16,7 C 15,6 C 78 % 1021,6 hPa 0,0 l/m 2 min 0 min 211 W/m 9,7 km/h (2 Bft) 100,00 %
18.10.2018 15:22 17,3 C 17,2 C 15,6 C 78 % 1021,6 hPa 0,0 l/m 2 min 0 min 392 W/m 9,7 km/h (2 Bft) 100,00 %
18.10.2018 15:24 17,3 C 17,8 C 16,1 C 79 % 1021,6 hPa 0,0 l/m 2 min 0 min 468 W/m 12,9 km/h (3 Bft) 100,00 %
18.10.2018 15:26 17,3 C 17,8 C 16,1 C 79 % 1021,5 hPa 0,0 l/m 2 min 0 min 303 W/m 22,5 km/h (4 Bft) 100,00 %
18.10.2018 15:28 17,3 C 17,2 C 16,1 C 79 % 1021,6 hPa 0,0 l/m 2 min 0 min 252 W/m 22,5 km/h (4 Bft) 100,00 %
18.10.2018 15:30 17,3 C 17,2 C 16,1 C 79 % 1021,5 hPa 0,0 l/m 2 min 0 min 281 W/m 19,3 km/h (3 Bft) 100,00 %
18.10.2018 15:32 17,3 C 17,2 C 16,1 C 79 % 1021,5 hPa 0,0 l/m 2 min 0 min 238 W/m 12,9 km/h (3 Bft) 97,87 %
18.10.2018 15:34 17,4 C 17,2 C 16,1 C 79 % 1021,5 hPa 0,0 l/m 2 min 0 min 251 W/m 6,4 km/h (2 Bft) 100,00 %
18.10.2018 15:38 17,3 C 16,7 C 16,1 C 79 % 1021,5 hPa 0,0 l/m 4 min 0 min 220 W/m 16,1 km/h (3 Bft) 100,00 %
18.10.2018 15:40 17,3 C 16,7 C 15,6 C 79 % 1021,5 hPa 0,0 l/m 0 min 0 min 150 W/m 12,9 km/h (3 Bft) 93,62 %
18.10.2018 15:42 17,3 C 16,7 C 15,6 C 79 % 1021,5 hPa 0,0 l/m 0 min 0 min 140 W/m 9,7 km/h (2 Bft) 97,87 %
18.10.2018 15:44 17,3 C 16,7 C 15,6 C 79 % 1021,5 hPa 0,0 l/m 0 min 0 min 129 W/m 12,9 km/h (3 Bft) 95,74 %
18.10.2018 15:46 17,3 C 16,7 C 15,6 C 79 % 1021,4 hPa 0,0 l/m 0 min 0 min 115 W/m 16,1 km/h (3 Bft) 95,74 %
18.10.2018 15:48 17,3 C 16,7 C 15,6 C 79 % 1021,4 hPa 0,0 l/m 0 min 0 min 101 W/m 16,1 km/h (3 Bft) 95,74 %
18.10.2018 15:50 17,2 C 16,7 C 15,6 C 79 % 1021,5 hPa 0,0 l/m 0 min 0 min 97 W/m 12,9 km/h (3 Bft) 93,48 %
18.10.2018 15:52 17,2 C 16,1 C 15,6 C 79 % 1021,4 hPa 0,0 l/m 0 min 0 min 100 W/m 16,1 km/h (3 Bft) 95,83 %
18.10.2018 15:54 17,2 C 16,1 C 15,6 C 78 % 1021,5 hPa 0,0 l/m 0 min 0 min 99 W/m 9,7 km/h (2 Bft) 95,74 %
18.10.2018 15:56 17,2 C 16,1 C 15,6 C 78 % 1021,4 hPa 0,0 l/m 0 min 0 min 107 W/m 16,1 km/h (3 Bft) 95,74 %
18.10.2018 15:58 17,1 C 16,1 C 15,6 C 78 % 1021,4 hPa 0,0 l/m 0 min 0 min 117 W/m 19,3 km/h (3 Bft) 95,74 %
18.10.2018 16:00 17,1 C 16,1 C 15,6 C 78 % 1021,4 hPa 0,0 l/m 0 min 0 min 124 W/m 16,1 km/h (3 Bft) 95,74 %
18.10.2018 16:02 17,1 C 16,7 C 15,6 C 79 % 1021,4 hPa 0,0 l/m 0 min 0 min 127 W/m 9,7 km/h (2 Bft) 93,62 %
18.10.2018 16:04 17,0 C 16,7 C 15,6 C 79 % 1021,4 hPa 0,0 l/m 0 min 0 min 128 W/m 6,4 km/h (2 Bft) 95,74 %
18.10.2018 16:08 16,9 C 16,1 C 15,6 C 79 % 1021,4 hPa 0,0 l/m 0 min 0 min 124 W/m 25,7 km/h (4 Bft) 93,68 %
18.10.2018 16:10 16,9 C 16,1 C 15,6 C 78 % 1021,3 hPa 0,0 l/m 0 min 0 min 130 W/m 19,3 km/h (3 Bft) 95,65 %
18.10.2018 16:12 16,9 C 16,1 C 15,6 C 78 % 1021,4 hPa 0,0 l/m 0 min 0 min 126 W/m 12,9 km/h (3 Bft) 95,74 %
18.10.2018 16:14 16,9 C 16,1 C 15,0 C 78 % 1021,4 hPa 0,0 l/m 0 min 0 min 123 W/m 22,5 km/h (4 Bft) 95,74 %
18.10.2018 16:16 16,8 C 16,1 C 15,0 C 78 % 1021,3 hPa 0,0 l/m 0 min 0 min 123 W/m 16,1 km/h (3 Bft) 93,18 %
18.10.2018 16:18 16,8 C 16,1 C 15,0 C 78 % 1021,3 hPa 0,0 l/m 0 min 0 min 123 W/m 16,1 km/h (3 Bft) 95,74 %
18.10.2018 16:20 16,7 C 16,1 C 15,0 C 78 % 1021,4 hPa 0,0 l/m 0 min 0 min 120 W/m 16,1 km/h (3 Bft) 91,49 %
18.10.2018 16:22 16,7 C 16,1 C 15,0 C 78 % 1021,3 hPa 0,0 l/m 0 min 0 min 128 W/m 12,9 km/h (3 Bft) 95,65 %
18.10.2018 16:24 16,7 C 16,1 C 15,0 C 78 % 1021,3 hPa 0,0 l/m 0 min 0 min 141 W/m 22,5 km/h (4 Bft) 95,74 %
18.10.2018 16:26 16,6 C 16,1 C 15,0 C 78 % 1021,3 hPa 0,0 l/m 0 min 0 min 140 W/m 16,1 km/h (3 Bft) 97,87 %
18.10.2018 16:28 16,6 C 16,1 C 15,0 C 79 % 1021,3 hPa 0,0 l/m 0 min 0 min 125 W/m 19,3 km/h (3 Bft) 97,87 %
18.10.2018 16:30 16,6 C 16,1 C 15,0 C 79 % 1021,4 hPa 0,0 l/m 0 min 0 min 118 W/m 12,9 km/h (3 Bft) 95,74 %
18.10.2018 16:32 16,6 C 16,1 C 15,0 C 79 % 1021,3 hPa 0,0 l/m 0 min 0 min 104 W/m 9,7 km/h (2 Bft) 95,92 %
18.10.2018 16:34 16,6 C 16,1 C 15,0 C 79 % 1021,3 hPa 0,0 l/m 0 min 0 min 98 W/m 9,7 km/h (2 Bft) 97,83 %
18.10.2018 16:38 16,5 C 15,6 C 15,0 C 80 % 1021,3 hPa 0,0 l/m 0 min 0 min 85 W/m 16,1 km/h (3 Bft) 95,74 %
18.10.2018 16:40 16,5 C 15,6 C 15,0 C 80 % 1021,3 hPa 0,0 l/m 0 min 0 min 79 W/m 6,4 km/h (2 Bft) 97,87 %
18.10.2018 16:42 16,5 C 15,6 C 15,0 C 80 % 1021,2 hPa 0,0 l/m 0 min 0 min 75 W/m 9,7 km/h (2 Bft) 97,87 %
18.10.2018 16:44 16,4 C 15,6 C 15,0 C 80 % 1021,2 hPa 0,0 l/m 0 min 0 min 69 W/m 6,4 km/h (2 Bft) 97,87 %
18.10.2018 16:46 16,4 C 15,6 C 15,0 C 80 % 1021,2 hPa 0,0 l/m 0 min 0 min 63 W/m 22,5 km/h (4 Bft) 97,92 %
18.10.2018 16:48 16,4 C 15,6 C 15,0 C 80 % 1021,2 hPa 0,0 l/m 0 min 0 min 57 W/m 12,9 km/h (3 Bft) 97,87 %
18.10.2018 16:50 16,4 C 15,6 C 15,0 C 81 % 1021,2 hPa 0,0 l/m 0 min 0 min 53 W/m 9,7 km/h (2 Bft) 95,74 %
18.10.2018 16:52 16,4 C 15,6 C 15,0 C 81 % 1021,2 hPa 0,0 l/m 0 min 0 min 53 W/m 6,4 km/h (2 Bft) 97,87 %
18.10.2018 16:54 16,4 C 15,6 C 15,0 C 81 % 1021,2 hPa 0,0 l/m 0 min 0 min 59 W/m 6,4 km/h (2 Bft) 97,14 %
18.10.2018 16:56 16,3 C 15,6 C 15,0 C 81 % 1021,2 hPa 0,0 l/m 0 min 0 min 63 W/m 9,7 km/h (2 Bft) 97,87 %
18.10.2018 16:58 16,3 C 15,6 C 15,0 C 81 % 1021,2 hPa 0,0 l/m 0 min 0 min 62 W/m 3,2 km/h (1 Bft) 97,87 %
18.10.2018 17:00 16,3 C 15,6 C 15,0 C 82 % 1021,1 hPa 0,0 l/m 0 min 0 min 62 W/m 9,7 km/h (2 Bft) 97,83 %
18.10.2018 17:02 16,3 C 15,6 C 15,0 C 82 % 1021,2 hPa 0,0 l/m 0 min 0 min 60 W/m 12,9 km/h (3 Bft) 97,87 %
18.10.2018 17:04 16,2 C 15,6 C 15,0 C 82 % 1021,1 hPa 0,0 l/m 0 min 0 min 60 W/m 12,9 km/h (3 Bft) 97,87 %
18.10.2018 17:08 16,2 C 15,0 C 14,4 C 82 % 1021,1 hPa 0,0 l/m 0 min 0 min 56 W/m 19,3 km/h (3 Bft) 96,81 %
18.10.2018 17:10 16,2 C 15,0 C 14,4 C 82 % 1021,2 hPa 0,0 l/m 0 min 0 min 53 W/m 3,2 km/h (1 Bft) 97,87 %
18.10.2018 17:12 16,1 C 15,0 C 14,4 C 82 % 1021,2 hPa 0,0 l/m 0 min 0 min 51 W/m 16,1 km/h (3 Bft) 95,65 %
18.10.2018 17:14 16,1 C 15,0 C 14,4 C 83 % 1021,3 hPa 0,0 l/m 0 min 0 min 49 W/m 16,1 km/h (3 Bft) 97,87 %
18.10.2018 17:16 16,1 C 15,0 C 14,4 C 83 % 1021,3 hPa 0,0 l/m 0 min 0 min 50 W/m 12,9 km/h (3 Bft) 97,92 %
18.10.2018 17:18 16,0 C 15,0 C 14,4 C 83 % 1021,3 hPa 0,0 l/m 0 min 0 min 50 W/m 12,9 km/h (3 Bft) 97,87 %
18.10.2018 17:20 15,9 C 15,0 C 14,4 C 83 % 1021,3 hPa 0,0 l/m 0 min 0 min 48 W/m 12,9 km/h (3 Bft) 96,55 %
18.10.2018 17:22 15,9 C 15,0 C 14,4 C 83 % 1021,3 hPa 0,0 l/m 0 min 0 min 46 W/m 19,3 km/h (3 Bft) 97,22 %
18.10.2018 17:24 15,9 C 15,0 C 14,4 C 83 % 1021,3 hPa 0,0 l/m 0 min 0 min 44 W/m 12,9 km/h (3 Bft) 97,83 %
18.10.2018 17:26 15,8 C 15,0 C 14,4 C 83 % 1021,3 hPa 0,0 l/m 0 min 0 min 44 W/m 9,7 km/h (2 Bft) 97,87 %
18.10.2018 17:28 15,8 C 15,0 C 14,4 C 84 % 1021,3 hPa 0,0 l/m 0 min 0 min 41 W/m 6,4 km/h (2 Bft) 97,87 %
18.10.2018 17:32 15,8 C 15,0 C 14,4 C 84 % 1021,3 hPa 0,0 l/m 0 min 0 min 39 W/m 9,7 km/h (2 Bft) 97,87 %
18.10.2018 17:34 15,8 C 15,0 C 14,4 C 84 % 1021,3 hPa 0,0 l/m 0 min 0 min 38 W/m 9,7 km/h (2 Bft) 97,44 %
18.10.2018 17:37 15,7 C 15,0 C 14,4 C 84 % 1021,2 hPa 0,0 l/m 0 min 0 min 33 W/m 6,4 km/h (2 Bft) 97,44 %
18.10.2018 17:38 15,7 C 14,4 C 14,4 C 84 % 1021,2 hPa 0,0 l/m 0 min 0 min 32 W/m 9,7 km/h (2 Bft) 97,44 %
18.10.2018 17:40 15,7 C 14,4 C 14,4 C 84 % 1021,2 hPa 0,0 l/m 0 min 0 min 32 W/m 9,7 km/h (2 Bft) 100,00 %
18.10.2018 17:44 15,6 C 14,4 C 14,4 C 84 % 1021,3 hPa 0,0 l/m 0 min 0 min 23 W/m 12,9 km/h (3 Bft) 100,00 %
18.10.2018 17:46 15,6 C 14,4 C 14,4 C 84 % 1021,4 hPa 0,0 l/m 0 min 0 min 24 W/m 12,9 km/h (3 Bft) 98,64 %
18.10.2018 17:50 15,5 C 14,4 C 13,9 C 84 % 1021,3 hPa 0,0 l/m 0 min 0 min 19 W/m 16,1 km/h (3 Bft) 97,67 %
18.10.2018 17:52 15,5 C 14,4 C 13,9 C 85 % 1021,2 hPa 0,0 l/m 0 min 0 min 19 W/m 9,7 km/h (2 Bft) 97,56 %
18.10.2018 17:54 15,5 C 14,4 C 13,9 C 85 % 1021,3 hPa 0,0 l/m 0 min 0 min 18 W/m 6,4 km/h (2 Bft) 100,00 %
18.10.2018 17:56 15,4 C 14,4 C 13,9 C 85 % 1021,3 hPa 0,0 l/m 0 min 0 min 16 W/m 16,1 km/h (3 Bft) 98,11 %
18.10.2018 17:58 15,4 C 14,4 C 13,9 C 85 % 1021,3 hPa 0,0 l/m 0 min 0 min 12 W/m 12,9 km/h (3 Bft) 100,00 %
18.10.2018 18:00 15,4 C 14,4 C 13,9 C 85 % 1021,3 hPa 0,0 l/m 0 min 0 min 10 W/m 12,9 km/h (3 Bft) 100,00 %
18.10.2018 18:02 15,4 C 14,4 C 13,9 C 85 % 1021,3 hPa 0,0 l/m 0 min 0 min 9 W/m 16,1 km/h (3 Bft) 97,14 %
18.10.2018 18:04 15,4 C 14,4 C 13,9 C 85 % 1021,4 hPa 0,0 l/m 0 min 0 min 7 W/m 9,7 km/h (2 Bft) 100,00 %
18.10.2018 18:08 15,3 C 14,4 C 13,9 C 85 % 1021,4 hPa 0,0 l/m 0 min 0 min 9 W/m 9,7 km/h (2 Bft) 100,00 %
18.10.2018 18:10 15,3 C 14,4 C 13,9 C 86 % 1021,4 hPa 0,0 l/m 0 min 0 min 9 W/m 9,7 km/h (2 Bft) 100,00 %
18.10.2018 18:12 15,3 C 14,4 C 13,9 C 86 % 1021,4 hPa 0,0 l/m 0 min 0 min 9 W/m 9,7 km/h (2 Bft) 100,00 %
18.10.2018 18:14 15,3 C 14,4 C 13,9 C 86 % 1021,4 hPa 0,0 l/m 0 min 0 min 7 W/m 19,3 km/h (3 Bft) 100,00 %
18.10.2018 18:16 15,2 C 14,4 C 13,9 C 86 % 1021,5 hPa 0,0 l/m 0 min 0 min 7 W/m 9,7 km/h (2 Bft) 100,00 %
18.10.2018 18:18 15,2 C 14,4 C 13,9 C 86 % 1021,5 hPa 0,0 l/m 0 min 0 min 6 W/m 9,7 km/h (2 Bft) 97,87 %
18.10.2018 18:20 15,2 C 14,4 C 13,9 C 86 % 1021,5 hPa 0,0 l/m 0 min 0 min 5 W/m 9,7 km/h (2 Bft) 100,00 %
18.10.2018 18:22 15,2 C 14,4 C 13,9 C 86 % 1021,5 hPa 0,0 l/m 0 min 0 min 5 W/m 6,4 km/h (2 Bft) 97,87 %
18.10.2018 18:24 15,2 C 14,4 C 13,9 C 86 % 1021,5 hPa 0,0 l/m 0 min 0 min 5 W/m 6,4 km/h (2 Bft) 100,00 %
18.10.2018 18:26 15,1 C 14,4 C 13,9 C 86 % 1021,5 hPa 0,0 l/m 0 min 0 min 5 W/m 22,5 km/h (4 Bft) 97,87 %
18.10.2018 18:28 15,1 C 14,4 C 13,9 C 86 % 1021,5 hPa 0,0 l/m 0 min 0 min 5 W/m 22,5 km/h (4 Bft) 97,87 %
18.10.2018 18:30 15,1 C 14,4 C 13,9 C 87 % 1021,5 hPa 0,0 l/m 0 min 0 min 2 W/m 12,9 km/h (3 Bft) 97,83 %
18.10.2018 18:32 15,1 C 14,4 C 13,9 C 87 % 1021,6 hPa 0,0 l/m 0 min 0 min 0 W/m 9,7 km/h (2 Bft) 97,87 %
18.10.2018 18:34 15,1 C 13,9 C 13,9 C 87 % 1021,6 hPa 0,0 l/m 0 min 0 min 0 W/m 9,7 km/h (2 Bft) 97,87 %
18.10.2018 18:38 15,1 C 13,9 C 13,9 C 87 % 1021,6 hPa 0,0 l/m 0 min 0 min 0 W/m 12,9 km/h (3 Bft) 95,74 %
18.10.2018 18:40 15,0 C 13,9 C 13,9 C 87 % 1021,6 hPa 0,0 l/m 0 min 0 min 0 W/m 16,1 km/h (3 Bft) 95,74 %
18.10.2018 18:42 15,0 C 13,9 C 13,9 C 87 % 1021,6 hPa 0,0 l/m 0 min 0 min 0 W/m 25,7 km/h (4 Bft) 95,65 %
18.10.2018 18:44 14,9 C 13,9 C 13,9 C 87 % 1021,6 hPa 0,0 l/m 0 min 0 min 0 W/m 6,4 km/h (2 Bft) 95,74 %
18.10.2018 18:46 14,9 C 13,9 C 13,9 C 87 % 1021,7 hPa 0,0 l/m 0 min 0 min 0 W/m 9,7 km/h (2 Bft) 95,74 %
18.10.2018 18:48 14,9 C 13,9 C 13,9 C 87 % 1021,7 hPa 0,0 l/m 0 min 0 min 0 W/m 16,1 km/h (3 Bft) 95,74 %
18.10.2018 18:50 14,9 C 13,9 C 13,9 C 87 % 1021,7 hPa 0,0 l/m 0 min 0 min 0 W/m 19,3 km/h (3 Bft) 95,74 %
18.10.2018 18:52 14,9 C 13,9 C 13,9 C 87 % 1021,7 hPa 0,0 l/m 0 min 0 min 0 W/m 16,1 km/h (3 Bft) 95,74 %
18.10.2018 18:54 14,8 C 13,9 C 13,3 C 87 % 1021,7 hPa 0,0 l/m 0 min 0 min 0 W/m 12,9 km/h (3 Bft) 93,48 %
18.10.2018 18:56 14,8 C 13,9 C 13,3 C 88 % 1021,8 hPa 0,0 l/m 0 min 0 min 0 W/m 9,7 km/h (2 Bft) 91,67 %
18.10.2018 18:58 14,8 C 13,9 C 13,3 C 88 % 1021,8 hPa 0,0 l/m 0 min 0 min 0 W/m 6,4 km/h (2 Bft) 95,74 %
18.10.2018 19:00 14,8 C 13,9 C 13,3 C 88 % 1021,7 hPa 0,0 l/m 0 min 0 min 0 W/m 9,7 km/h (2 Bft) 93,62 %
18.10.2018 19:02 14,7 C 13,9 C 13,3 C 88 % 1021,8 hPa 0,0 l/m 0 min 0 min 0 W/m 19,3 km/h (3 Bft) 95,74 %
18.10.2018 19:04 14,7 C 13,9 C 13,3 C 88 % 1021,8 hPa 0,0 l/m 0 min 0 min 0 W/m 6,4 km/h (2 Bft) 95,74 %
18.10.2018 19:08 14,7 C 13,9 C 13,3 C 88 % 1021,8 hPa 0,0 l/m 0 min 0 min 0 W/m 25,7 km/h (4 Bft) 94,62 %
18.10.2018 19:10 14,7 C 13,9 C 13,3 C 88 % 1021,7 hPa 0,0 l/m 0 min 0 min 0 W/m 9,7 km/h (2 Bft) 95,74 %
18.10.2018 19:12 14,6 C 13,3 C 13,3 C 88 % 1021,8 hPa 0,0 l/m 0 min 0 min 0 W/m 19,3 km/h (3 Bft) 95,74 %
18.10.2018 19:14 14,6 C 13,3 C 13,3 C 88 % 1021,8 hPa 0,0 l/m 0 min 0 min 0 W/m 3,2 km/h (1 Bft) 95,74 %
18.10.2018 19:16 14,6 C 13,3 C 13,3 C 88 % 1021,8 hPa 0,0 l/m 0 min 0 min 0 W/m 3,2 km/h (1 Bft) 95,35 %
18.10.2018 19:18 14,6 C 13,3 C 13,3 C 88 % 1021,8 hPa 0,0 l/m 0 min 0 min 0 W/m 0,0 km/h (0 Bft) 97,87 %
18.10.2018 19:20 14,6 C 13,3 C 13,3 C 88 % 1021,8 hPa 0,0 l/m 0 min 0 min 0 W/m 6,4 km/h (2 Bft) 93,48 %
18.10.2018 19:22 14,6 C 13,3 C 13,3 C 88 % 1021,8 hPa 0,0 l/m 0 min 0 min 0 W/m 6,4 km/h (2 Bft) 97,87 %
18.10.2018 19:24 14,5 C 13,3 C 13,3 C 88 % 1021,8 hPa 0,0 l/m 0 min 0 min 0 W/m 16,1 km/h (3 Bft) 97,87 %
18.10.2018 19:26 14,5 C 13,3 C 13,3 C 89 % 1021,7 hPa 0,0 l/m 0 min 0 min 0 W/m 3,2 km/h (1 Bft) 95,74 %
18.10.2018 19:28 14,5 C 13,3 C 13,3 C 89 % 1021,8 hPa 0,0 l/m 0 min 0 min 0 W/m 9,7 km/h (2 Bft) 100,00 %
18.10.2018 19:30 14,4 C 13,3 C 13,3 C 89 % 1021,8 hPa 0,0 l/m 0 min 0 min 0 W/m 9,7 km/h (2 Bft) 95,74 %
18.10.2018 19:32 14,4 C 13,3 C 13,3 C 89 % 1021,8 hPa 0,0 l/m 0 min 0 min 0 W/m 3,2 km/h (1 Bft) 100,00 %
18.10.2018 19:34 14,4 C 13,3 C 13,3 C 89 % 1021,8 hPa 0,0 l/m 0 min 0 min 0 W/m 12,9 km/h (3 Bft) 97,87 %
18.10.2018 19:38 14,3 C 13,3 C 13,3 C 89 % 1021,9 hPa 0,0 l/m 0 min 0 min 0 W/m 9,7 km/h (2 Bft) 100,00 %
18.10.2018 19:40 14,3 C 13,3 C 13,3 C 89 % 1021,9 hPa 0,0 l/m 0 min 0 min 0 W/m 6,4 km/h (2 Bft) 100,00 %
18.10.2018 19:42 14,3 C 13,3 C 13,3 C 89 % 1021,9 hPa 0,0 l/m 0 min 0 min 0 W/m 6,4 km/h (2 Bft) 100,00 %
18.10.2018 19:44 14,3 C 13,3 C 13,3 C 89 % 1021,8 hPa 0,0 l/m 0 min 0 min 0 W/m 6,4 km/h (2 Bft) 100,00 %
18.10.2018 19:46 14,3 C 13,3 C 13,3 C 89 % 1021,8 hPa 0,0 l/m 0 min 0 min 0 W/m 0,0 km/h (0 Bft) 97,62 %
18.10.2018 19:48 14,3 C 13,3 C 13,3 C 89 % 1021,9 hPa 0,0 l/m 0 min 0 min 0 W/m 3,2 km/h (1 Bft) 100,00 %
18.10.2018 19:50 14,2 C 13,3 C 13,3 C 90 % 1021,9 hPa 0,0 l/m 0 min 0 min 0 W/m 3,2 km/h (1 Bft) 100,00 %
18.10.2018 19:52 14,2 C 13,3 C 13,3 C 90 % 1021,8 hPa 0,0 l/m 0 min 0 min 0 W/m 9,7 km/h (2 Bft) 100,00 %
18.10.2018 19:54 14,2 C 13,3 C 13,3 C 90 % 1021,9 hPa 0,0 l/m 0 min 0 min 0 W/m 6,4 km/h (2 Bft) 97,83 %
18.10.2018 19:56 14,2 C 13,3 C 13,3 C 90 % 1021,9 hPa 0,0 l/m 0 min 0 min 0 W/m 3,2 km/h (1 Bft) 100,00 %
18.10.2018 19:58 14,2 C 13,3 C 13,3 C 90 % 1021,9 hPa 0,0 l/m 0 min 0 min 0 W/m 6,4 km/h (2 Bft) 97,87 %
18.10.2018 20:00 14,2 C 13,3 C 13,3 C 90 % 1022,0 hPa 0,0 l/m 0 min 0 min 0 W/m 6,4 km/h (2 Bft) 100,00 %
18.10.2018 20:02 14,2 C 13,3 C 13,3 C 90 % 1022,0 hPa 0,0 l/m 0 min 0 min 0 W/m 6,4 km/h (2 Bft) 97,87 %
18.10.2018 20:04 14,2 C 13,3 C 13,3 C 90 % 1022,0 hPa 0,0 l/m 0 min 0 min 0 W/m 9,7 km/h (2 Bft) 100,00 %
18.10.2018 20:08 14,2 C 13,3 C 13,3 C 90 % 1022,0 hPa 0,0 l/m 0 min 0 min 0 W/m 6,4 km/h (2 Bft) 98,94 %
18.10.2018 20:10 14,2 C 13,3 C 13,3 C 90 % 1022,0 hPa 0,0 l/m 0 min 0 min 0 W/m 9,7 km/h (2 Bft) 100,00 %
18.10.2018 20:12 14,2 C 13,3 C 13,3 C 90 % 1022,0 hPa 0,0 l/m 0 min 0 min 0 W/m 9,7 km/h (2 Bft) 97,87 %
18.10.2018 20:14 14,2 C 13,3 C 13,3 C 90 % 1022,0 hPa 0,0 l/m 0 min 0 min 0 W/m 16,1 km/h (3 Bft) 100,00 %
18.10.2018 20:16 14,2 C 13,3 C 13,3 C 90 % 1022,0 hPa 0,0 l/m 0 min 0 min 0 W/m 9,7 km/h (2 Bft) 97,83 %
18.10.2018 20:18 14,2 C 13,3 C 13,3 C 90 % 1022,0 hPa 0,0 l/m 0 min 0 min 0 W/m 9,7 km/h (2 Bft) 95,74 %
18.10.2018 20:20 14,2 C 13,3 C 13,3 C 90 % 1022,0 hPa 0,0 l/m 0 min 0 min 0 W/m 6,4 km/h (2 Bft) 97,87 %
18.10.2018 20:22 14,2 C 13,3 C 13,3 C 90 % 1022,0 hPa 0,0 l/m 0 min 0 min 0 W/m 9,7 km/h (2 Bft) 95,74 %
18.10.2018 20:24 14,2 C 13,3 C 13,3 C 90 % 1022,0 hPa 0,0 l/m 0 min 0 min 0 W/m 9,7 km/h (2 Bft) 97,87 %
18.10.2018 20:26 14,2 C 13,3 C 13,3 C 90 % 1022,0 hPa 0,0 l/m 0 min 0 min 0 W/m 6,4 km/h (2 Bft) 95,74 %
18.10.2018 20:28 14,2 C 13,3 C 13,3 C 90 % 1022,0 hPa 0,0 l/m 0 min 0 min 0 W/m 12,9 km/h (3 Bft) 97,83 %
18.10.2018 20:30 14,1 C 13,3 C 13,3 C 90 % 1022,0 hPa 0,0 l/m 0 min 0 min 0 W/m 6,4 km/h (2 Bft) 97,87 %
18.10.2018 20:32 14,1 C 13,3 C 13,3 C 90 % 1022,0 hPa 0,0 l/m 0 min 0 min 0 W/m 9,7 km/h (2 Bft) 95,74 %
18.10.2018 20:34 14,1 C 13,3 C 13,3 C 90 % 1022,0 hPa 0,0 l/m 0 min 0 min 0 W/m 9,7 km/h (2 Bft) 97,87 %
18.10.2018 20:38 14,1 C 13,3 C 13,3 C 90 % 1022,0 hPa 0,0 l/m 0 min 0 min 0 W/m 22,5 km/h (4 Bft) 97,87 %
18.10.2018 20:40 14,1 C 13,3 C 13,3 C 90 % 1022,2 hPa 0,0 l/m 0 min 0 min 0 W/m 6,4 km/h (2 Bft) 97,83 %
18.10.2018 20:42 14,1 C 13,3 C 13,3 C 90 % 1022,2 hPa 0,0 l/m 0 min 0 min 0 W/m 12,9 km/h (3 Bft) 97,87 %
18.10.2018 20:44 14,1 C 13,3 C 13,3 C 90 % 1022,1 hPa 0,0 l/m 0 min 0 min 0 W/m 16,1 km/h (3 Bft) 97,87 %
18.10.2018 20:46 14,0 C 13,3 C 13,3 C 90 % 1022,1 hPa 0,0 l/m 0 min 0 min 0 W/m 12,9 km/h (3 Bft) 97,87 %
18.10.2018 20:48 14,1 C 13,3 C 13,3 C 90 % 1022,2 hPa 0,0 l/m 0 min 0 min 0 W/m 6,4 km/h (2 Bft) 97,87 %
18.10.2018 20:50 14,1 C 13,3 C 13,3 C 90 % 1022,1 hPa 0,0 l/m 0 min 0 min 0 W/m 9,7 km/h (2 Bft) 97,87 %
18.10.2018 20:52 14,0 C 13,3 C 13,3 C 90 % 1022,3 hPa 0,0 l/m 0 min 0 min 0 W/m 19,3 km/h (3 Bft) 97,83 %
18.10.2018 20:54 14,1 C 13,3 C 13,3 C 90 % 1022,3 hPa 0,0 l/m 0 min 0 min 0 W/m 9,7 km/h (2 Bft) 97,87 %
18.10.2018 20:56 14,1 C 13,3 C 13,3 C 90 % 1022,3 hPa 0,0 l/m 0 min 0 min 0 W/m 6,4 km/h (2 Bft) 97,87 %
18.10.2018 20:58 14,1 C 13,3 C 13,3 C 90 % 1022,3 hPa 0,0 l/m 0 min 0 min 0 W/m 6,4 km/h (2 Bft) 97,87 %
18.10.2018 21:00 14,1 C 13,3 C 13,3 C 90 % 1022,3 hPa 0,0 l/m 0 min 0 min 0 W/m 6,4 km/h (2 Bft) 97,87 %
18.10.2018 21:02 14,1 C 13,3 C 13,3 C 90 % 1022,3 hPa 0,0 l/m 0 min 0 min 0 W/m 16,1 km/h (3 Bft) 97,87 %
18.10.2018 21:04 14,0 C 13,3 C 13,3 C 90 % 1022,3 hPa 0,0 l/m 0 min 0 min 0 W/m 12,9 km/h (3 Bft) 97,83 %
18.10.2018 21:08 14,1 C 13,3 C 13,3 C 90 % 1022,4 hPa 0,0 l/m 0 min 0 min 0 W/m 12,9 km/h (3 Bft) 96,81 %
18.10.2018 21:10 14,1 C 13,3 C 13,3 C 90 % 1022,5 hPa 0,0 l/m 0 min 0 min 0 W/m 12,9 km/h (3 Bft) 97,87 %
18.10.2018 21:12 14,1 C 13,3 C 13,3 C 90 % 1022,4 hPa 0,0 l/m 0 min 0 min 0 W/m 9,7 km/h (2 Bft) 95,74 %
18.10.2018 21:14 14,1 C 13,3 C 13,3 C 90 % 1022,5 hPa 0,0 l/m 0 min 0 min 0 W/m 16,1 km/h (3 Bft) 97,83 %
18.10.2018 21:16 14,1 C 13,3 C 13,3 C 90 % 1022,5 hPa 0,0 l/m 0 min 0 min 0 W/m 9,7 km/h (2 Bft) 93,33 %
18.10.2018 21:18 14,0 C 13,3 C 12,8 C 90 % 1022,5 hPa 0,0 l/m 0 min 0 min 0 W/m 6,4 km/h (2 Bft) 95,74 %
18.10.2018 21:20 14,1 C 13,3 C 12,8 C 90 % 1022,5 hPa 0,0 l/m 0 min 0 min 0 W/m 6,4 km/h (2 Bft) 97,87 %
18.10.2018 21:22 14,0 C 13,3 C 12,8 C 90 % 1022,5 hPa 0,0 l/m 0 min 0 min 0 W/m 3,2 km/h (1 Bft) 95,74 %
18.10.2018 21:24 14,0 C 13,3 C 12,8 C 90 % 1022,5 hPa 0,0 l/m 0 min 0 min 0 W/m 6,4 km/h (2 Bft) 93,62 %
18.10.2018 21:26 14,0 C 13,3 C 12,8 C 90 % 1022,5 hPa 0,0 l/m 0 min 0 min 0 W/m 9,7 km/h (2 Bft) 97,87 %
18.10.2018 21:28 13,9 C 13,3 C 12,8 C 90 % 1022,6 hPa 0,0 l/m 0 min 0 min 0 W/m 16,1 km/h (3 Bft) 97,83 %
18.10.2018 21:30 13,9 C 13,3 C 12,8 C 89 % 1022,7 hPa 0,0 l/m 0 min 0 min 0 W/m 12,9 km/h (3 Bft) 95,74 %
18.10.2018 21:32 13,9 C 13,3 C 12,8 C 89 % 1022,6 hPa 0,0 l/m 0 min 0 min 0 W/m 12,9 km/h (3 Bft) 95,74 %
18.10.2018 21:34 13,9 C 13,3 C 12,8 C 89 % 1022,7 hPa 0,0 l/m 0 min 0 min 0 W/m 9,7 km/h (2 Bft) 91,49 %
18.10.2018 21:38 13,8 C 13,3 C 12,8 C 89 % 1022,7 hPa 0,0 l/m 0 min 0 min 0 W/m 19,3 km/h (3 Bft) 95,74 %
18.10.2018 21:40 13,8 C 13,3 C 12,8 C 88 % 1022,7 hPa 0,0 l/m 0 min 0 min 0 W/m 6,4 km/h (2 Bft) 93,48 %
18.10.2018 21:42 13,8 C 13,3 C 12,8 C 88 % 1022,7 hPa 0,0 l/m 0 min 0 min 0 W/m 16,1 km/h (3 Bft) 93,62 %
18.10.2018 21:44 13,8 C 13,3 C 12,8 C 88 % 1022,7 hPa 0,0 l/m 0 min 0 min 0 W/m 6,4 km/h (2 Bft) 93,62 %
18.10.2018 21:46 13,8 C 13,3 C 12,8 C 88 % 1022,8 hPa 0,0 l/m 0 min 0 min 0 W/m 9,7 km/h (2 Bft) 95,74 %
18.10.2018 21:48 13,8 C 13,3 C 12,8 C 88 % 1022,8 hPa 0,0 l/m 0 min 0 min 0 W/m 9,7 km/h (2 Bft) 95,74 %
18.10.2018 21:50 13,8 C 13,3 C 12,8 C 88 % 1022,8 hPa 0,0 l/m 0 min 0 min 0 W/m 16,1 km/h (3 Bft) 95,74 %
18.10.2018 21:52 13,7 C 13,3 C 12,8 C 88 % 1022,8 hPa 0,0 l/m 0 min 0 min 0 W/m 6,4 km/h (2 Bft) 91,30 %
18.10.2018 21:54 13,7 C 13,3 C 12,8 C 88 % 1022,8 hPa 0,0 l/m 0 min 0 min 0 W/m 9,7 km/h (2 Bft) 95,74 %
18.10.2018 21:56 13,7 C 12,8 C 12,8 C 88 % 1022,8 hPa 0,0 l/m 0 min 0 min 0 W/m 12,9 km/h (3 Bft) 95,74 %
18.10.2018 21:58 13,7 C 12,8 C 12,8 C 88 % 1022,8 hPa 0,0 l/m 0 min 0 min 0 W/m 9,7 km/h (2 Bft) 95,74 %
18.10.2018 22:00 13,7 C 12,8 C 12,8 C 88 % 1022,8 hPa 0,0 l/m 0 min 0 min 0 W/m 12,9 km/h (3 Bft) 95,74 %
18.10.2018 22:02 13,7 C 12,2 C 12,2 C 88 % 1022,9 hPa 0,0 l/m 0 min 0 min 0 W/m 9,7 km/h (2 Bft) 93,75 %
18.10.2018 22:04 13,7 C 12,2 C 12,2 C 88 % 1022,9 hPa 0,0 l/m 0 min 0 min 0 W/m 12,9 km/h (3 Bft) 97,83 %
18.10.2018 22:08 13,7 C 12,2 C 12,2 C 89 % 1022,9 hPa 0,0 l/m 0 min 0 min 0 W/m 9,7 km/h (2 Bft) 97,89 %
18.10.2018 22:10 13,7 C 11,7 C 12,2 C 89 % 1022,9 hPa 0,0 l/m 0 min 0 min 0 W/m 9,7 km/h (2 Bft) 95,74 %
18.10.2018 22:12 13,7 C 11,7 C 12,2 C 89 % 1023,0 hPa 0,0 l/m 0 min 0 min 0 W/m 9,7 km/h (2 Bft) 95,74 %
18.10.2018 22:14 13,6 C 11,7 C 12,2 C 89 % 1023,0 hPa 0,0 l/m 0 min 0 min 0 W/m 9,7 km/h (2 Bft) 100,00 %
18.10.2018 22:16 13,6 C 11,7 C 12,2 C 89 % 1022,9 hPa 0,0 l/m 0 min 0 min 0 W/m 16,1 km/h (3 Bft) 100,00 %
18.10.2018 22:18 13,6 C 11,7 C 12,2 C 89 % 1023,0 hPa 0,0 l/m 0 min 0 min 0 W/m 9,7 km/h (2 Bft) 100,00 %
18.10.2018 22:20 13,5 C 11,7 C 12,2 C 89 % 1023,0 hPa 0,0 l/m 0 min 0 min 0 W/m 9,7 km/h (2 Bft) 97,87 %
18.10.2018 22:22 13,5 C 11,7 C 12,2 C 90 % 1023,0 hPa 0,0 l/m 0 min 0 min 0 W/m 6,4 km/h (2 Bft) 100,00 %
18.10.2018 22:24 13,4 C 11,7 C 12,2 C 90 % 1023,0 hPa 0,0 l/m 0 min 0 min 0 W/m 6,4 km/h (2 Bft) 100,00 %
18.10.2018 22:26 13,4 C 11,7 C 12,2 C 90 % 1023,0 hPa 0,0 l/m 0 min 0 min 0 W/m 6,4 km/h (2 Bft) 97,83 %
18.10.2018 22:28 13,4 C 11,7 C 12,2 C 90 % 1023,0 hPa 0,0 l/m 0 min 0 min 0 W/m 6,4 km/h (2 Bft) 100,00 %
18.10.2018 22:30 13,3 C 12,2 C 12,2 C 90 % 1023,1 hPa 0,0 l/m 0 min 0 min 0 W/m 6,4 km/h (2 Bft) 100,00 %
18.10.2018 22:32 13,3 C 12,2 C 12,2 C 90 % 1023,0 hPa 0,0 l/m 0 min 0 min 0 W/m 19,3 km/h (3 Bft) 100,00 %
18.10.2018 22:34 13,3 C 12,2 C 12,2 C 90 % 1023,0 hPa 0,0 l/m 0 min 0 min 0 W/m 6,4 km/h (2 Bft) 100,00 %
18.10.2018 22:38 13,2 C 12,2 C 12,2 C 90 % 1023,0 hPa 0,0 l/m 0 min 0 min 0 W/m 12,9 km/h (3 Bft) 100,00 %
18.10.2018 22:40 13,2 C 12,2 C 12,2 C 90 % 1023,0 hPa 0,0 l/m 0 min 0 min 0 W/m 9,7 km/h (2 Bft) 100,00 %
18.10.2018 22:42 13,1 C 12,2 C 12,2 C 90 % 1022,9 hPa 0,0 l/m 0 min 0 min 0 W/m 16,1 km/h (3 Bft) 100,00 %
18.10.2018 22:44 13,1 C 12,2 C 12,2 C 90 % 1022,9 hPa 0,0 l/m 0 min 0 min 0 W/m 12,9 km/h (3 Bft) 100,00 %
18.10.2018 22:46 13,1 C 12,2 C 12,2 C 91 % 1022,9 hPa 0,0 l/m 0 min 0 min 0 W/m 9,7 km/h (2 Bft) 100,00 %
18.10.2018 22:48 13,0 C 12,2 C 12,2 C 91 % 1022,9 hPa 0,0 l/m 0 min 0 min 0 W/m 6,4 km/h (2 Bft) 100,00 %
18.10.2018 22:50 13,0 C 12,2 C 12,2 C 90 % 1022,9 hPa 0,0 l/m 0 min 0 min 0 W/m 9,7 km/h (2 Bft) 100,00 %
18.10.2018 22:52 13,0 C 12,2 C 12,2 C 90 % 1022,9 hPa 0,0 l/m 0 min 0 min 0 W/m 12,9 km/h (3 Bft) 100,00 %
18.10.2018 22:54 12,9 C 12,2 C 12,2 C 90 % 1022,9 hPa 0,0 l/m 0 min 0 min 0 W/m 12,9 km/h (3 Bft) 100,00 %
18.10.2018 22:56 12,9 C 12,2 C 12,2 C 91 % 1022,9 hPa 0,0 l/m 0 min 0 min 0 W/m 9,7 km/h (2 Bft) 100,00 %
18.10.2018 22:58 12,9 C 12,2 C 12,2 C 91 % 1022,9 hPa 0,0 l/m 0 min 0 min 0 W/m 12,9 km/h (3 Bft) 100,00 %
18.10.2018 23:00 12,9 C 12,2 C 12,2 C 91 % 1023,0 hPa 0,0 l/m 0 min 0 min 0 W/m 6,4 km/h (2 Bft) 97,83 %
18.10.2018 23:02 12,9 C 12,2 C 12,2 C 91 % 1022,8 hPa 0,0 l/m 0 min 0 min 0 W/m 9,7 km/h (2 Bft) 100,00 %
18.10.2018 23:04 12,9 C 12,2 C 12,2 C 91 % 1022,8 hPa 0,0 l/m 0 min 0 min 0 W/m 6,4 km/h (2 Bft) 100,00 %
18.10.2018 23:08 12,9 C 12,2 C 12,2 C 91 % 1022,8 hPa 0,0 l/m 0 min 0 min 0 W/m 16,1 km/h (3 Bft) 98,94 %
18.10.2018 23:10 12,9 C 12,2 C 12,2 C 91 % 1022,8 hPa 0,0 l/m 0 min 0 min 0 W/m 12,9 km/h (3 Bft) 100,00 %
18.10.2018 23:12 12,9 C 12,2 C 12,2 C 91 % 1022,9 hPa 0,0 l/m 0 min 0 min 0 W/m 19,3 km/h (3 Bft) 100,00 %
18.10.2018 23:14 12,9 C 12,2 C 12,2 C 91 % 1022,9 hPa 0,0 l/m 0 min 0 min 0 W/m 9,7 km/h (2 Bft) 100,00 %
18.10.2018 23:16 12,9 C 12,2 C 12,2 C 91 % 1022,9 hPa 0,0 l/m 0 min 0 min 0 W/m 9,7 km/h (2 Bft) 100,00 %
18.10.2018 23:18 12,9 C 12,2 C 12,2 C 91 % 1022,8 hPa 0,0 l/m 0 min 0 min 0 W/m 12,9 km/h (3 Bft) 100,00 %
18.10.2018 23:20 12,9 C 12,2 C 12,2 C 91 % 1022,8 hPa 0,0 l/m 0 min 0 min 0 W/m 9,7 km/h (2 Bft) 100,00 %
18.10.2018 23:22 12,8 C 12,2 C 12,2 C 91 % 1022,8 hPa 0,0 l/m 0 min 0 min 0 W/m 12,9 km/h (3 Bft) 100,00 %
18.10.2018 23:24 12,9 C 12,2 C 12,2 C 91 % 1022,7 hPa 0,0 l/m 0 min 0 min 0 W/m 12,9 km/h (3 Bft) 100,00 %
18.10.2018 23:26 12,8 C 12,2 C 12,2 C 91 % 1022,8 hPa 0,0 l/m 0 min 0 min 0 W/m 19,3 km/h (3 Bft) 97,87 %
18.10.2018 23:28 12,8 C 12,2 C 12,2 C 91 % 1022,7 hPa 0,0 l/m 0 min 0 min 0 W/m 6,4 km/h (2 Bft) 97,87 %
18.10.2018 23:30 12,8 C 12,2 C 12,2 C 91 % 1022,6 hPa 0,0 l/m 0 min 0 min 0 W/m 6,4 km/h (2 Bft) 100,00 %
18.10.2018 23:32 12,8 C 12,2 C 12,2 C 91 % 1022,6 hPa 0,0 l/m 0 min 0 min 0 W/m 6,4 km/h (2 Bft) 100,00 %
18.10.2018 23:34 12,8 C 12,2 C 12,2 C 91 % 1022,6 hPa 0,0 l/m 0 min 0 min 0 W/m 12,9 km/h (3 Bft) 100,00 %
18.10.2018 23:38 12,8 C 12,2 C 12,2 C 91 % 1022,6 hPa 0,0 l/m 0 min 0 min 0 W/m 12,9 km/h (3 Bft) 100,00 %
18.10.2018 23:40 12,8 C 12,2 C 12,2 C 90 % 1022,5 hPa 0,0 l/m 0 min 0 min 0 W/m 16,1 km/h (3 Bft) 100,00 %
18.10.2018 23:42 12,8 C 12,2 C 12,2 C 90 % 1022,6 hPa 0,0 l/m 0 min 0 min 0 W/m 12,9 km/h (3 Bft) 97,87 %
18.10.2018 23:44 12,7 C 12,2 C 12,2 C 90 % 1022,6 hPa 0,0 l/m 0 min 0 min 0 W/m 12,9 km/h (3 Bft) 100,00 %
18.10.2018 23:46 12,7 C 12,2 C 12,2 C 90 % 1022,6 hPa 0,0 l/m 0 min 0 min 0 W/m 12,9 km/h (3 Bft) 100,00 %
18.10.2018 23:48 12,8 C 12,2 C 12,2 C 90 % 1022,6 hPa 0,0 l/m 0 min 0 min 0 W/m 3,2 km/h (1 Bft) 100,00 %
18.10.2018 23:50 12,7 C 12,2 C 12,2 C 90 % 1022,6 hPa 0,0 l/m 0 min 0 min 0 W/m 9,7 km/h (2 Bft) 100,00 %
18.10.2018 23:52 12,7 C 12,2 C 12,2 C 90 % 1022,5 hPa 0,0 l/m 0 min 0 min 0 W/m 6,4 km/h (2 Bft) 100,00 %
18.10.2018 23:54 12,8 C 12,2 C 12,2 C 90 % 1022,6 hPa 0,0 l/m 0 min 0 min 0 W/m 12,9 km/h (3 Bft) 97,87 %
18.10.2018 23:56 12,8 C 12,2 C 12,2 C 89 % 1022,6 hPa 0,0 l/m 0 min 0 min 0 W/m 12,9 km/h (3 Bft) 97,87 %
18.10.2018 23:58 12,8 C 12,2 C 12,2 C 89 % 1022,6 hPa 0,0 l/m 0 min 0 min 0 W/m 6,4 km/h (2 Bft) 97,83 %
_ Min-Zeit 02:58 01:16 01:58 14:16 00:00 - - - - 00:02 07:18
Minimum _ 12,4 C 11,7 C 11,7 C 74 % 1018,8 hPa - - - - 0,0 km/h (0 Bft) 89,36 %
_ Max-Zeit 12:40 12:22 12:26 04:50 22:30 00:00 14:08 00:00 13:20 12:44 00:16
Maximum _ 17,7 C 25,0 C 16,1 C 97 % 1023,1 hPa 0,0 l/m 4 min 0 min 556 W/m 29,0 km/h
W (5 Bft)
100,00 %
Durchschnitt _ 14,4 C 14,1 C 13,4 C 89 % 1020,9 hPa #0,0 l/m #1:50 h #0 min. 132 W/m 9,2 km/h (2 Bft) 97,65 %
© 2018 W. Hausmann